<?xml version="1.0" encoding="UTF-8" standalone="no" ?>
<gpx xmlns="http://www.topografix.com/GPX/1/1" xmlns:xsi="http://www.w3.org/2001/XMLSchema-instance" xsi:schemaLocation="http://www.topografix.com/GPX/1/1 http://www.topografix.com/GPX/1/1/gpx.xsd" version="1.1" creator="VisuGPX - https://www.visugpx.com">
  <metadata>
    <name>Jasse Bralard - sous la pointe Ouest 2491m (Belledonne)</name>
    <desc><![CDATA[Au départ de [b]Casserousse[/b]]]></desc>
  </metadata>
  <trk>
    <name><![CDATA[24 mars 2026 Ã  08:28:53]]></name>
    <extensions>
      <line xmlns="http://www.topografix.com/GPX/gpx_style/0/2">
        <color>0000FF</color>
        <width>4</width>
      </line>
    </extensions>
    <trkseg>
      <trkpt lat="45.14028" lon="5.88781">
        <ele>1408</ele>
        <time>2026-03-24T07:28:53Z</time>
      </trkpt>
      <trkpt lat="45.14028" lon="5.88781">
        <ele>1408</ele>
        <time>2026-03-24T07:28:54Z</time>
      </trkpt>
      <trkpt lat="45.1403" lon="5.88781">
        <ele>1410</ele>
        <time>2026-03-24T07:30:03Z</time>
      </trkpt>
      <trkpt lat="45.14022" lon="5.88777">
        <ele>1413</ele>
        <time>2026-03-24T07:32:00Z</time>
      </trkpt>
      <trkpt lat="45.14012" lon="5.88774">
        <ele>1413</ele>
        <time>2026-03-24T07:32:10Z</time>
      </trkpt>
      <trkpt lat="45.14008" lon="5.88771">
        <ele>1413</ele>
        <time>2026-03-24T07:32:14Z</time>
      </trkpt>
      <trkpt lat="45.13982" lon="5.88765">
        <ele>1417</ele>
        <time>2026-03-24T07:32:45Z</time>
      </trkpt>
      <trkpt lat="45.13976" lon="5.88764">
        <ele>1418</ele>
        <time>2026-03-24T07:32:53Z</time>
      </trkpt>
      <trkpt lat="45.13969" lon="5.88765">
        <ele>1420</ele>
        <time>2026-03-24T07:33:04Z</time>
      </trkpt>
      <trkpt lat="45.13967" lon="5.88764">
        <ele>1420</ele>
        <time>2026-03-24T07:33:08Z</time>
      </trkpt>
      <trkpt lat="45.13962" lon="5.88766">
        <ele>1421</ele>
        <time>2026-03-24T07:33:16Z</time>
      </trkpt>
      <trkpt lat="45.13956" lon="5.88765">
        <ele>1423</ele>
        <time>2026-03-24T07:33:26Z</time>
      </trkpt>
      <trkpt lat="45.13947" lon="5.88768">
        <ele>1426</ele>
        <time>2026-03-24T07:33:41Z</time>
      </trkpt>
      <trkpt lat="45.13945" lon="5.88768">
        <ele>1426</ele>
        <time>2026-03-24T07:33:45Z</time>
      </trkpt>
      <trkpt lat="45.13926" lon="5.88772">
        <ele>1432</ele>
        <time>2026-03-24T07:34:19Z</time>
      </trkpt>
      <trkpt lat="45.13918" lon="5.88774">
        <ele>1434</ele>
        <time>2026-03-24T07:34:32Z</time>
      </trkpt>
      <trkpt lat="45.13911" lon="5.88774">
        <ele>1436</ele>
        <time>2026-03-24T07:34:45Z</time>
      </trkpt>
      <trkpt lat="45.13894" lon="5.88776">
        <ele>1441</ele>
        <time>2026-03-24T07:35:18Z</time>
      </trkpt>
      <trkpt lat="45.13877" lon="5.88776">
        <ele>1446</ele>
        <time>2026-03-24T07:35:49Z</time>
      </trkpt>
      <trkpt lat="45.13863" lon="5.88776">
        <ele>1450</ele>
        <time>2026-03-24T07:36:15Z</time>
      </trkpt>
      <trkpt lat="45.13858" lon="5.88778">
        <ele>1452</ele>
        <time>2026-03-24T07:36:25Z</time>
      </trkpt>
      <trkpt lat="45.13855" lon="5.88778">
        <ele>1453</ele>
        <time>2026-03-24T07:36:28Z</time>
      </trkpt>
      <trkpt lat="45.13853" lon="5.88779">
        <ele>1454</ele>
        <time>2026-03-24T07:36:33Z</time>
      </trkpt>
      <trkpt lat="45.13836" lon="5.88782">
        <ele>1458</ele>
        <time>2026-03-24T07:37:04Z</time>
      </trkpt>
      <trkpt lat="45.13819" lon="5.88786">
        <ele>1463</ele>
        <time>2026-03-24T07:37:35Z</time>
      </trkpt>
      <trkpt lat="45.13804" lon="5.88792">
        <ele>1468</ele>
        <time>2026-03-24T07:38:08Z</time>
      </trkpt>
      <trkpt lat="45.13786" lon="5.88797">
        <ele>1474</ele>
        <time>2026-03-24T07:38:49Z</time>
      </trkpt>
      <trkpt lat="45.13777" lon="5.88798">
        <ele>1478</ele>
        <time>2026-03-24T07:39:12Z</time>
      </trkpt>
      <trkpt lat="45.13773" lon="5.888">
        <ele>1480</ele>
        <time>2026-03-24T07:39:23Z</time>
      </trkpt>
      <trkpt lat="45.13756" lon="5.88801">
        <ele>1487</ele>
        <time>2026-03-24T07:40:04Z</time>
      </trkpt>
      <trkpt lat="45.13746" lon="5.88801">
        <ele>1490</ele>
        <time>2026-03-24T07:40:28Z</time>
      </trkpt>
      <trkpt lat="45.13742" lon="5.88803">
        <ele>1493</ele>
        <time>2026-03-24T07:40:40Z</time>
      </trkpt>
      <trkpt lat="45.13728" lon="5.88807">
        <ele>1498</ele>
        <time>2026-03-24T07:41:14Z</time>
      </trkpt>
      <trkpt lat="45.13723" lon="5.88808">
        <ele>1500</ele>
        <time>2026-03-24T07:41:26Z</time>
      </trkpt>
      <trkpt lat="45.13708" lon="5.88807">
        <ele>1505</ele>
        <time>2026-03-24T07:41:55Z</time>
      </trkpt>
      <trkpt lat="45.13701" lon="5.88807">
        <ele>1507</ele>
        <time>2026-03-24T07:42:07Z</time>
      </trkpt>
      <trkpt lat="45.13681" lon="5.88803">
        <ele>1512</ele>
        <time>2026-03-24T07:42:42Z</time>
      </trkpt>
      <trkpt lat="45.13661" lon="5.88797">
        <ele>1517</ele>
        <time>2026-03-24T07:43:17Z</time>
      </trkpt>
      <trkpt lat="45.13643" lon="5.88795">
        <ele>1521</ele>
        <time>2026-03-24T07:43:53Z</time>
      </trkpt>
      <trkpt lat="45.13621" lon="5.88794">
        <ele>1527</ele>
        <time>2026-03-24T07:44:32Z</time>
      </trkpt>
      <trkpt lat="45.13604" lon="5.88791">
        <ele>1533</ele>
        <time>2026-03-24T07:45:06Z</time>
      </trkpt>
      <trkpt lat="45.13596" lon="5.88788">
        <ele>1535</ele>
        <time>2026-03-24T07:45:23Z</time>
      </trkpt>
      <trkpt lat="45.1358" lon="5.88787">
        <ele>1539</ele>
        <time>2026-03-24T07:45:58Z</time>
      </trkpt>
      <trkpt lat="45.13574" lon="5.88786">
        <ele>1541</ele>
        <time>2026-03-24T07:46:10Z</time>
      </trkpt>
      <trkpt lat="45.13565" lon="5.88786">
        <ele>1544</ele>
        <time>2026-03-24T07:46:28Z</time>
      </trkpt>
      <trkpt lat="45.13563" lon="5.88785">
        <ele>1545</ele>
        <time>2026-03-24T07:46:33Z</time>
      </trkpt>
      <trkpt lat="45.13548" lon="5.88786">
        <ele>1549</ele>
        <time>2026-03-24T07:47:02Z</time>
      </trkpt>
      <trkpt lat="45.13545" lon="5.88785">
        <ele>1550</ele>
        <time>2026-03-24T07:47:08Z</time>
      </trkpt>
      <trkpt lat="45.13536" lon="5.88785">
        <ele>1553</ele>
        <time>2026-03-24T07:47:24Z</time>
      </trkpt>
      <trkpt lat="45.13518" lon="5.88782">
        <ele>1559</ele>
        <time>2026-03-24T07:48:00Z</time>
      </trkpt>
      <trkpt lat="45.13515" lon="5.88783">
        <ele>1560</ele>
        <time>2026-03-24T07:48:05Z</time>
      </trkpt>
      <trkpt lat="45.13504" lon="5.88778">
        <ele>1563</ele>
        <time>2026-03-24T07:48:27Z</time>
      </trkpt>
      <trkpt lat="45.13493" lon="5.88776">
        <ele>1566</ele>
        <time>2026-03-24T07:48:48Z</time>
      </trkpt>
      <trkpt lat="45.13488" lon="5.88774">
        <ele>1567</ele>
        <time>2026-03-24T07:48:58Z</time>
      </trkpt>
      <trkpt lat="45.13483" lon="5.88774">
        <ele>1569</ele>
        <time>2026-03-24T07:49:08Z</time>
      </trkpt>
      <trkpt lat="45.13469" lon="5.88771">
        <ele>1573</ele>
        <time>2026-03-24T07:49:36Z</time>
      </trkpt>
      <trkpt lat="45.13461" lon="5.88771">
        <ele>1575</ele>
        <time>2026-03-24T07:49:54Z</time>
      </trkpt>
      <trkpt lat="45.13459" lon="5.8877">
        <ele>1576</ele>
        <time>2026-03-24T07:50:00Z</time>
      </trkpt>
      <trkpt lat="45.13451" lon="5.8877">
        <ele>1579</ele>
        <time>2026-03-24T07:50:18Z</time>
      </trkpt>
      <trkpt lat="45.13447" lon="5.88769">
        <ele>1581</ele>
        <time>2026-03-24T07:50:30Z</time>
      </trkpt>
      <trkpt lat="45.13439" lon="5.88773">
        <ele>1582</ele>
        <time>2026-03-24T07:51:18Z</time>
      </trkpt>
      <trkpt lat="45.13425" lon="5.88785">
        <ele>1587</ele>
        <time>2026-03-24T07:51:50Z</time>
      </trkpt>
      <trkpt lat="45.13421" lon="5.88788">
        <ele>1589</ele>
        <time>2026-03-24T07:52:01Z</time>
      </trkpt>
      <trkpt lat="45.13416" lon="5.88778">
        <ele>1592</ele>
        <time>2026-03-24T07:52:19Z</time>
      </trkpt>
      <trkpt lat="45.13411" lon="5.88767">
        <ele>1594</ele>
        <time>2026-03-24T07:52:37Z</time>
      </trkpt>
      <trkpt lat="45.13407" lon="5.88767">
        <ele>1596</ele>
        <time>2026-03-24T07:52:48Z</time>
      </trkpt>
      <trkpt lat="45.13395" lon="5.88784">
        <ele>1601</ele>
        <time>2026-03-24T07:53:21Z</time>
      </trkpt>
      <trkpt lat="45.13393" lon="5.88786">
        <ele>1602</ele>
        <time>2026-03-24T07:53:27Z</time>
      </trkpt>
      <trkpt lat="45.13382" lon="5.88776">
        <ele>1606</ele>
        <time>2026-03-24T07:53:51Z</time>
      </trkpt>
      <trkpt lat="45.13379" lon="5.88769">
        <ele>1608</ele>
        <time>2026-03-24T07:54:02Z</time>
      </trkpt>
      <trkpt lat="45.13374" lon="5.88772">
        <ele>1610</ele>
        <time>2026-03-24T07:54:18Z</time>
      </trkpt>
      <trkpt lat="45.1337" lon="5.8878">
        <ele>1612</ele>
        <time>2026-03-24T07:54:30Z</time>
      </trkpt>
      <trkpt lat="45.13368" lon="5.88783">
        <ele>1613</ele>
        <time>2026-03-24T07:54:36Z</time>
      </trkpt>
      <trkpt lat="45.13365" lon="5.88783">
        <ele>1614</ele>
        <time>2026-03-24T07:54:41Z</time>
      </trkpt>
      <trkpt lat="45.13359" lon="5.88779">
        <ele>1616</ele>
        <time>2026-03-24T07:54:53Z</time>
      </trkpt>
      <trkpt lat="45.13354" lon="5.88782">
        <ele>1618</ele>
        <time>2026-03-24T07:55:11Z</time>
      </trkpt>
      <trkpt lat="45.1335" lon="5.88787">
        <ele>1620</ele>
        <time>2026-03-24T07:55:23Z</time>
      </trkpt>
      <trkpt lat="45.13347" lon="5.88787">
        <ele>1620</ele>
        <time>2026-03-24T07:55:27Z</time>
      </trkpt>
      <trkpt lat="45.1334" lon="5.88806">
        <ele>1625</ele>
        <time>2026-03-24T07:55:56Z</time>
      </trkpt>
      <trkpt lat="45.13339" lon="5.88814">
        <ele>1626</ele>
        <time>2026-03-24T07:56:06Z</time>
      </trkpt>
      <trkpt lat="45.1334" lon="5.88822">
        <ele>1628</ele>
        <time>2026-03-24T07:56:19Z</time>
      </trkpt>
      <trkpt lat="45.13339" lon="5.88831">
        <ele>1630</ele>
        <time>2026-03-24T07:56:31Z</time>
      </trkpt>
      <trkpt lat="45.13336" lon="5.88833">
        <ele>1631</ele>
        <time>2026-03-24T07:56:37Z</time>
      </trkpt>
      <trkpt lat="45.13334" lon="5.88839">
        <ele>1633</ele>
        <time>2026-03-24T07:56:49Z</time>
      </trkpt>
      <trkpt lat="45.13335" lon="5.88851">
        <ele>1635</ele>
        <time>2026-03-24T07:57:04Z</time>
      </trkpt>
      <trkpt lat="45.13335" lon="5.88855">
        <ele>1636</ele>
        <time>2026-03-24T07:57:09Z</time>
      </trkpt>
      <trkpt lat="45.13335" lon="5.88859">
        <ele>1637</ele>
        <time>2026-03-24T07:57:13Z</time>
      </trkpt>
      <trkpt lat="45.13335" lon="5.88879">
        <ele>1640</ele>
        <time>2026-03-24T07:57:36Z</time>
      </trkpt>
      <trkpt lat="45.13336" lon="5.88883">
        <ele>1641</ele>
        <time>2026-03-24T07:57:40Z</time>
      </trkpt>
      <trkpt lat="45.13334" lon="5.8889">
        <ele>1642</ele>
        <time>2026-03-24T07:57:49Z</time>
      </trkpt>
      <trkpt lat="45.13337" lon="5.88896">
        <ele>1644</ele>
        <time>2026-03-24T07:57:58Z</time>
      </trkpt>
      <trkpt lat="45.13336" lon="5.889">
        <ele>1644</ele>
        <time>2026-03-24T07:58:03Z</time>
      </trkpt>
      <trkpt lat="45.13335" lon="5.88903">
        <ele>1645</ele>
        <time>2026-03-24T07:58:08Z</time>
      </trkpt>
      <trkpt lat="45.13335" lon="5.88909">
        <ele>1647</ele>
        <time>2026-03-24T07:58:19Z</time>
      </trkpt>
      <trkpt lat="45.13335" lon="5.88916">
        <ele>1649</ele>
        <time>2026-03-24T07:58:30Z</time>
      </trkpt>
      <trkpt lat="45.13338" lon="5.88939">
        <ele>1655</ele>
        <time>2026-03-24T07:59:06Z</time>
      </trkpt>
      <trkpt lat="45.13336" lon="5.88947">
        <ele>1657</ele>
        <time>2026-03-24T07:59:36Z</time>
      </trkpt>
      <trkpt lat="45.13339" lon="5.88963">
        <ele>1661</ele>
        <time>2026-03-24T07:59:59Z</time>
      </trkpt>
      <trkpt lat="45.13339" lon="5.88971">
        <ele>1663</ele>
        <time>2026-03-24T08:00:11Z</time>
      </trkpt>
      <trkpt lat="45.13339" lon="5.88983">
        <ele>1666</ele>
        <time>2026-03-24T08:00:30Z</time>
      </trkpt>
      <trkpt lat="45.1334" lon="5.88995">
        <ele>1669</ele>
        <time>2026-03-24T08:00:48Z</time>
      </trkpt>
      <trkpt lat="45.13338" lon="5.89">
        <ele>1670</ele>
        <time>2026-03-24T08:00:55Z</time>
      </trkpt>
      <trkpt lat="45.13338" lon="5.89004">
        <ele>1671</ele>
        <time>2026-03-24T08:01:00Z</time>
      </trkpt>
      <trkpt lat="45.13334" lon="5.89018">
        <ele>1673</ele>
        <time>2026-03-24T08:01:20Z</time>
      </trkpt>
      <trkpt lat="45.13329" lon="5.89038">
        <ele>1670</ele>
        <time>2026-03-24T08:07:19Z</time>
      </trkpt>
      <trkpt lat="45.13323" lon="5.89065">
        <ele>1667</ele>
        <time>2026-03-24T08:07:29Z</time>
      </trkpt>
      <trkpt lat="45.13315" lon="5.89078">
        <ele>1666</ele>
        <time>2026-03-24T08:07:39Z</time>
      </trkpt>
      <trkpt lat="45.13308" lon="5.89094">
        <ele>1666</ele>
        <time>2026-03-24T08:08:00Z</time>
      </trkpt>
      <trkpt lat="45.13313" lon="5.89103">
        <ele>1667</ele>
        <time>2026-03-24T08:08:06Z</time>
      </trkpt>
      <trkpt lat="45.13315" lon="5.89111">
        <ele>1667</ele>
        <time>2026-03-24T08:08:11Z</time>
      </trkpt>
      <trkpt lat="45.13322" lon="5.89125">
        <ele>1667</ele>
        <time>2026-03-24T08:08:24Z</time>
      </trkpt>
      <trkpt lat="45.13331" lon="5.8913">
        <ele>1669</ele>
        <time>2026-03-24T08:08:35Z</time>
      </trkpt>
      <trkpt lat="45.13337" lon="5.8914">
        <ele>1670</ele>
        <time>2026-03-24T08:08:50Z</time>
      </trkpt>
      <trkpt lat="45.13343" lon="5.8917">
        <ele>1671</ele>
        <time>2026-03-24T08:09:16Z</time>
      </trkpt>
      <trkpt lat="45.13348" lon="5.89183">
        <ele>1673</ele>
        <time>2026-03-24T08:09:29Z</time>
      </trkpt>
      <trkpt lat="45.1335" lon="5.89195">
        <ele>1674</ele>
        <time>2026-03-24T08:09:42Z</time>
      </trkpt>
      <trkpt lat="45.13355" lon="5.89211">
        <ele>1677</ele>
        <time>2026-03-24T08:10:02Z</time>
      </trkpt>
      <trkpt lat="45.13362" lon="5.89247">
        <ele>1683</ele>
        <time>2026-03-24T08:10:43Z</time>
      </trkpt>
      <trkpt lat="45.13374" lon="5.89275">
        <ele>1689</ele>
        <time>2026-03-24T08:11:25Z</time>
      </trkpt>
      <trkpt lat="45.13385" lon="5.89306">
        <ele>1695</ele>
        <time>2026-03-24T08:12:04Z</time>
      </trkpt>
      <trkpt lat="45.13389" lon="5.89319">
        <ele>1697</ele>
        <time>2026-03-24T08:12:21Z</time>
      </trkpt>
      <trkpt lat="45.13398" lon="5.89333">
        <ele>1699</ele>
        <time>2026-03-24T08:12:40Z</time>
      </trkpt>
      <trkpt lat="45.13408" lon="5.89357">
        <ele>1702</ele>
        <time>2026-03-24T08:13:10Z</time>
      </trkpt>
      <trkpt lat="45.13416" lon="5.89364">
        <ele>1703</ele>
        <time>2026-03-24T08:13:23Z</time>
      </trkpt>
      <trkpt lat="45.13425" lon="5.89388">
        <ele>1708</ele>
        <time>2026-03-24T08:13:55Z</time>
      </trkpt>
      <trkpt lat="45.13431" lon="5.89419">
        <ele>1713</ele>
        <time>2026-03-24T08:14:30Z</time>
      </trkpt>
      <trkpt lat="45.13436" lon="5.89443">
        <ele>1717</ele>
        <time>2026-03-24T08:15:10Z</time>
      </trkpt>
      <trkpt lat="45.13437" lon="5.89465">
        <ele>1720</ele>
        <time>2026-03-24T08:15:30Z</time>
      </trkpt>
      <trkpt lat="45.13432" lon="5.89475">
        <ele>1722</ele>
        <time>2026-03-24T08:15:48Z</time>
      </trkpt>
      <trkpt lat="45.13434" lon="5.89489">
        <ele>1726</ele>
        <time>2026-03-24T08:16:14Z</time>
      </trkpt>
      <trkpt lat="45.13443" lon="5.89492">
        <ele>1728</ele>
        <time>2026-03-24T08:16:25Z</time>
      </trkpt>
      <trkpt lat="45.13456" lon="5.89494">
        <ele>1731</ele>
        <time>2026-03-24T08:16:44Z</time>
      </trkpt>
      <trkpt lat="45.13456" lon="5.89509">
        <ele>1736</ele>
        <time>2026-03-24T08:17:13Z</time>
      </trkpt>
      <trkpt lat="45.13451" lon="5.89523">
        <ele>1741</ele>
        <time>2026-03-24T08:17:41Z</time>
      </trkpt>
      <trkpt lat="45.13465" lon="5.89535">
        <ele>1745</ele>
        <time>2026-03-24T08:18:08Z</time>
      </trkpt>
      <trkpt lat="45.13478" lon="5.89531">
        <ele>1749</ele>
        <time>2026-03-24T08:18:34Z</time>
      </trkpt>
      <trkpt lat="45.13475" lon="5.89548">
        <ele>1754</ele>
        <time>2026-03-24T08:19:09Z</time>
      </trkpt>
      <trkpt lat="45.1348" lon="5.89563">
        <ele>1758</ele>
        <time>2026-03-24T08:19:30Z</time>
      </trkpt>
      <trkpt lat="45.13489" lon="5.89574">
        <ele>1761</ele>
        <time>2026-03-24T08:19:54Z</time>
      </trkpt>
      <trkpt lat="45.13496" lon="5.89584">
        <ele>1764</ele>
        <time>2026-03-24T08:20:12Z</time>
      </trkpt>
      <trkpt lat="45.13491" lon="5.89603">
        <ele>1767</ele>
        <time>2026-03-24T08:20:37Z</time>
      </trkpt>
      <trkpt lat="45.13481" lon="5.89612">
        <ele>1768</ele>
        <time>2026-03-24T08:20:56Z</time>
      </trkpt>
      <trkpt lat="45.13472" lon="5.89623">
        <ele>1772</ele>
        <time>2026-03-24T08:21:19Z</time>
      </trkpt>
      <trkpt lat="45.13471" lon="5.89638">
        <ele>1775</ele>
        <time>2026-03-24T08:21:40Z</time>
      </trkpt>
      <trkpt lat="45.13462" lon="5.89623">
        <ele>1779</ele>
        <time>2026-03-24T08:22:04Z</time>
      </trkpt>
      <trkpt lat="45.13453" lon="5.8963">
        <ele>1782</ele>
        <time>2026-03-24T08:22:18Z</time>
      </trkpt>
      <trkpt lat="45.13444" lon="5.89636">
        <ele>1784</ele>
        <time>2026-03-24T08:22:36Z</time>
      </trkpt>
      <trkpt lat="45.13436" lon="5.89646">
        <ele>1787</ele>
        <time>2026-03-24T08:22:54Z</time>
      </trkpt>
      <trkpt lat="45.13437" lon="5.89668">
        <ele>1790</ele>
        <time>2026-03-24T08:23:14Z</time>
      </trkpt>
      <trkpt lat="45.13442" lon="5.89684">
        <ele>1790</ele>
        <time>2026-03-24T08:23:39Z</time>
      </trkpt>
      <trkpt lat="45.13447" lon="5.89691">
        <ele>1789</ele>
        <time>2026-03-24T08:23:43Z</time>
      </trkpt>
      <trkpt lat="45.13464" lon="5.8974">
        <ele>1783</ele>
        <time>2026-03-24T08:23:57Z</time>
      </trkpt>
      <trkpt lat="45.13472" lon="5.89757">
        <ele>1782</ele>
        <time>2026-03-24T08:25:07Z</time>
      </trkpt>
      <trkpt lat="45.13478" lon="5.89768">
        <ele>1782</ele>
        <time>2026-03-24T08:25:15Z</time>
      </trkpt>
      <trkpt lat="45.1349" lon="5.89777">
        <ele>1782</ele>
        <time>2026-03-24T08:25:26Z</time>
      </trkpt>
      <trkpt lat="45.13492" lon="5.89785">
        <ele>1782</ele>
        <time>2026-03-24T08:25:31Z</time>
      </trkpt>
      <trkpt lat="45.13501" lon="5.898">
        <ele>1781</ele>
        <time>2026-03-24T08:25:44Z</time>
      </trkpt>
      <trkpt lat="45.13503" lon="5.89809">
        <ele>1780</ele>
        <time>2026-03-24T08:25:49Z</time>
      </trkpt>
      <trkpt lat="45.13507" lon="5.89815">
        <ele>1779</ele>
        <time>2026-03-24T08:25:53Z</time>
      </trkpt>
      <trkpt lat="45.13513" lon="5.89817">
        <ele>1777</ele>
        <time>2026-03-24T08:25:57Z</time>
      </trkpt>
      <trkpt lat="45.13519" lon="5.89822">
        <ele>1775</ele>
        <time>2026-03-24T08:26:03Z</time>
      </trkpt>
      <trkpt lat="45.13517" lon="5.89836">
        <ele>1773</ele>
        <time>2026-03-24T08:26:24Z</time>
      </trkpt>
      <trkpt lat="45.13525" lon="5.89843">
        <ele>1772</ele>
        <time>2026-03-24T08:26:27Z</time>
      </trkpt>
      <trkpt lat="45.13504" lon="5.89864">
        <ele>1763</ele>
        <time>2026-03-24T08:26:46Z</time>
      </trkpt>
      <trkpt lat="45.13505" lon="5.89897">
        <ele>1754</ele>
        <time>2026-03-24T08:27:13Z</time>
      </trkpt>
      <trkpt lat="45.13499" lon="5.89923">
        <ele>1747</ele>
        <time>2026-03-24T08:27:19Z</time>
      </trkpt>
      <trkpt lat="45.13496" lon="5.89942">
        <ele>1746</ele>
        <time>2026-03-24T08:27:56Z</time>
      </trkpt>
      <trkpt lat="45.13499" lon="5.89984">
        <ele>1749</ele>
        <time>2026-03-24T08:28:29Z</time>
      </trkpt>
      <trkpt lat="45.13495" lon="5.90002">
        <ele>1750</ele>
        <time>2026-03-24T08:28:45Z</time>
      </trkpt>
      <trkpt lat="45.13491" lon="5.90012">
        <ele>1751</ele>
        <time>2026-03-24T08:28:57Z</time>
      </trkpt>
      <trkpt lat="45.13486" lon="5.90024">
        <ele>1754</ele>
        <time>2026-03-24T08:29:17Z</time>
      </trkpt>
      <trkpt lat="45.13484" lon="5.9004">
        <ele>1757</ele>
        <time>2026-03-24T08:29:35Z</time>
      </trkpt>
      <trkpt lat="45.13483" lon="5.90067">
        <ele>1764</ele>
        <time>2026-03-24T08:30:15Z</time>
      </trkpt>
      <trkpt lat="45.1348" lon="5.90078">
        <ele>1769</ele>
        <time>2026-03-24T08:30:39Z</time>
      </trkpt>
      <trkpt lat="45.13484" lon="5.90096">
        <ele>1773</ele>
        <time>2026-03-24T08:31:21Z</time>
      </trkpt>
      <trkpt lat="45.13483" lon="5.90109">
        <ele>1781</ele>
        <time>2026-03-24T08:32:12Z</time>
      </trkpt>
      <trkpt lat="45.13477" lon="5.90124">
        <ele>1787</ele>
        <time>2026-03-24T08:32:54Z</time>
      </trkpt>
      <trkpt lat="45.13467" lon="5.90139">
        <ele>1791</ele>
        <time>2026-03-24T08:33:18Z</time>
      </trkpt>
      <trkpt lat="45.13469" lon="5.90169">
        <ele>1795</ele>
        <time>2026-03-24T08:33:49Z</time>
      </trkpt>
      <trkpt lat="45.13464" lon="5.90189">
        <ele>1797</ele>
        <time>2026-03-24T08:34:08Z</time>
      </trkpt>
      <trkpt lat="45.13467" lon="5.90208">
        <ele>1797</ele>
        <time>2026-03-24T08:34:24Z</time>
      </trkpt>
      <trkpt lat="45.13469" lon="5.90213">
        <ele>1798</ele>
        <time>2026-03-24T08:34:36Z</time>
      </trkpt>
      <trkpt lat="45.13476" lon="5.90236">
        <ele>1799</ele>
        <time>2026-03-24T08:35:01Z</time>
      </trkpt>
      <trkpt lat="45.13477" lon="5.90242">
        <ele>1799</ele>
        <time>2026-03-24T08:35:06Z</time>
      </trkpt>
      <trkpt lat="45.13477" lon="5.90252">
        <ele>1799</ele>
        <time>2026-03-24T08:35:12Z</time>
      </trkpt>
      <trkpt lat="45.1348" lon="5.90272">
        <ele>1798</ele>
        <time>2026-03-24T08:35:22Z</time>
      </trkpt>
      <trkpt lat="45.13479" lon="5.90278">
        <ele>1798</ele>
        <time>2026-03-24T08:35:26Z</time>
      </trkpt>
      <trkpt lat="45.1348" lon="5.90296">
        <ele>1797</ele>
        <time>2026-03-24T08:35:37Z</time>
      </trkpt>
      <trkpt lat="45.1348" lon="5.90329">
        <ele>1798</ele>
        <time>2026-03-24T08:36:01Z</time>
      </trkpt>
      <trkpt lat="45.13479" lon="5.90351">
        <ele>1798</ele>
        <time>2026-03-24T08:36:15Z</time>
      </trkpt>
      <trkpt lat="45.13479" lon="5.90356">
        <ele>1798</ele>
        <time>2026-03-24T08:36:19Z</time>
      </trkpt>
      <trkpt lat="45.13478" lon="5.90361">
        <ele>1798</ele>
        <time>2026-03-24T08:36:23Z</time>
      </trkpt>
      <trkpt lat="45.13475" lon="5.9037">
        <ele>1799</ele>
        <time>2026-03-24T08:36:31Z</time>
      </trkpt>
      <trkpt lat="45.13473" lon="5.90382">
        <ele>1800</ele>
        <time>2026-03-24T08:36:43Z</time>
      </trkpt>
      <trkpt lat="45.13472" lon="5.90387">
        <ele>1800</ele>
        <time>2026-03-24T08:36:47Z</time>
      </trkpt>
      <trkpt lat="45.13472" lon="5.90394">
        <ele>1800</ele>
        <time>2026-03-24T08:36:51Z</time>
      </trkpt>
      <trkpt lat="45.13469" lon="5.90406">
        <ele>1801</ele>
        <time>2026-03-24T08:37:02Z</time>
      </trkpt>
      <trkpt lat="45.13464" lon="5.90415">
        <ele>1802</ele>
        <time>2026-03-24T08:37:14Z</time>
      </trkpt>
      <trkpt lat="45.13461" lon="5.90442">
        <ele>1808</ele>
        <time>2026-03-24T08:37:50Z</time>
      </trkpt>
      <trkpt lat="45.13461" lon="5.90456">
        <ele>1810</ele>
        <time>2026-03-24T08:38:07Z</time>
      </trkpt>
      <trkpt lat="45.1346" lon="5.9047">
        <ele>1813</ele>
        <time>2026-03-24T08:38:25Z</time>
      </trkpt>
      <trkpt lat="45.13462" lon="5.90485">
        <ele>1815</ele>
        <time>2026-03-24T08:38:43Z</time>
      </trkpt>
      <trkpt lat="45.13465" lon="5.905">
        <ele>1818</ele>
        <time>2026-03-24T08:39:01Z</time>
      </trkpt>
      <trkpt lat="45.13463" lon="5.90515">
        <ele>1820</ele>
        <time>2026-03-24T08:39:19Z</time>
      </trkpt>
      <trkpt lat="45.13464" lon="5.90531">
        <ele>1823</ele>
        <time>2026-03-24T08:39:37Z</time>
      </trkpt>
      <trkpt lat="45.13467" lon="5.90547">
        <ele>1829</ele>
        <time>2026-03-24T08:40:08Z</time>
      </trkpt>
      <trkpt lat="45.13463" lon="5.90562">
        <ele>1836</ele>
        <time>2026-03-24T08:41:01Z</time>
      </trkpt>
      <trkpt lat="45.13453" lon="5.90569">
        <ele>1839</ele>
        <time>2026-03-24T08:41:19Z</time>
      </trkpt>
      <trkpt lat="45.13447" lon="5.90605">
        <ele>1843</ele>
        <time>2026-03-24T08:41:56Z</time>
      </trkpt>
      <trkpt lat="45.13448" lon="5.90622">
        <ele>1845</ele>
        <time>2026-03-24T08:42:14Z</time>
      </trkpt>
      <trkpt lat="45.13444" lon="5.90639">
        <ele>1849</ele>
        <time>2026-03-24T08:42:37Z</time>
      </trkpt>
      <trkpt lat="45.1344" lon="5.90653">
        <ele>1851</ele>
        <time>2026-03-24T08:42:55Z</time>
      </trkpt>
      <trkpt lat="45.13442" lon="5.90668">
        <ele>1855</ele>
        <time>2026-03-24T08:43:19Z</time>
      </trkpt>
      <trkpt lat="45.13444" lon="5.90682">
        <ele>1859</ele>
        <time>2026-03-24T08:43:43Z</time>
      </trkpt>
      <trkpt lat="45.13454" lon="5.9069">
        <ele>1863</ele>
        <time>2026-03-24T08:44:07Z</time>
      </trkpt>
      <trkpt lat="45.13458" lon="5.90709">
        <ele>1868</ele>
        <time>2026-03-24T08:44:37Z</time>
      </trkpt>
      <trkpt lat="45.1346" lon="5.90722">
        <ele>1871</ele>
        <time>2026-03-24T08:44:55Z</time>
      </trkpt>
      <trkpt lat="45.13462" lon="5.90739">
        <ele>1873</ele>
        <time>2026-03-24T08:45:13Z</time>
      </trkpt>
      <trkpt lat="45.13456" lon="5.90753">
        <ele>1875</ele>
        <time>2026-03-24T08:45:31Z</time>
      </trkpt>
      <trkpt lat="45.13455" lon="5.90769">
        <ele>1878</ele>
        <time>2026-03-24T08:45:49Z</time>
      </trkpt>
      <trkpt lat="45.13452" lon="5.90787">
        <ele>1881</ele>
        <time>2026-03-24T08:46:13Z</time>
      </trkpt>
      <trkpt lat="45.13448" lon="5.90802">
        <ele>1886</ele>
        <time>2026-03-24T08:46:40Z</time>
      </trkpt>
      <trkpt lat="45.13444" lon="5.90837">
        <ele>1892</ele>
        <time>2026-03-24T08:47:28Z</time>
      </trkpt>
      <trkpt lat="45.13439" lon="5.90851">
        <ele>1896</ele>
        <time>2026-03-24T08:47:52Z</time>
      </trkpt>
      <trkpt lat="45.13432" lon="5.90862">
        <ele>1899</ele>
        <time>2026-03-24T08:48:10Z</time>
      </trkpt>
      <trkpt lat="45.13441" lon="5.90874">
        <ele>1903</ele>
        <time>2026-03-24T08:48:33Z</time>
      </trkpt>
      <trkpt lat="45.13448" lon="5.90882">
        <ele>1906</ele>
        <time>2026-03-24T08:48:55Z</time>
      </trkpt>
      <trkpt lat="45.13451" lon="5.90895">
        <ele>1910</ele>
        <time>2026-03-24T08:49:19Z</time>
      </trkpt>
      <trkpt lat="45.13448" lon="5.9091">
        <ele>1914</ele>
        <time>2026-03-24T08:49:43Z</time>
      </trkpt>
      <trkpt lat="45.13441" lon="5.90926">
        <ele>1919</ele>
        <time>2026-03-24T08:50:13Z</time>
      </trkpt>
      <trkpt lat="45.13434" lon="5.90934">
        <ele>1921</ele>
        <time>2026-03-24T08:50:30Z</time>
      </trkpt>
      <trkpt lat="45.13431" lon="5.90949">
        <ele>1924</ele>
        <time>2026-03-24T08:50:55Z</time>
      </trkpt>
      <trkpt lat="45.13441" lon="5.90957">
        <ele>1927</ele>
        <time>2026-03-24T08:51:13Z</time>
      </trkpt>
      <trkpt lat="45.1345" lon="5.90963">
        <ele>1927</ele>
        <time>2026-03-24T08:51:26Z</time>
      </trkpt>
      <trkpt lat="45.13456" lon="5.90974">
        <ele>1928</ele>
        <time>2026-03-24T08:51:40Z</time>
      </trkpt>
      <trkpt lat="45.13465" lon="5.90982">
        <ele>1931</ele>
        <time>2026-03-24T08:51:58Z</time>
      </trkpt>
      <trkpt lat="45.13465" lon="5.90996">
        <ele>1935</ele>
        <time>2026-03-24T08:52:22Z</time>
      </trkpt>
      <trkpt lat="45.13463" lon="5.91009">
        <ele>1939</ele>
        <time>2026-03-24T08:52:45Z</time>
      </trkpt>
      <trkpt lat="45.13464" lon="5.91028">
        <ele>1942</ele>
        <time>2026-03-24T08:53:08Z</time>
      </trkpt>
      <trkpt lat="45.1348" lon="5.91047">
        <ele>1947</ele>
        <time>2026-03-24T08:53:44Z</time>
      </trkpt>
      <trkpt lat="45.13497" lon="5.91059">
        <ele>1951</ele>
        <time>2026-03-24T08:54:14Z</time>
      </trkpt>
      <trkpt lat="45.13506" lon="5.91059">
        <ele>1954</ele>
        <time>2026-03-24T08:54:32Z</time>
      </trkpt>
      <trkpt lat="45.13513" lon="5.91053">
        <ele>1956</ele>
        <time>2026-03-24T08:54:55Z</time>
      </trkpt>
      <trkpt lat="45.13509" lon="5.9107">
        <ele>1960</ele>
        <time>2026-03-24T08:55:22Z</time>
      </trkpt>
      <trkpt lat="45.13503" lon="5.91081">
        <ele>1962</ele>
        <time>2026-03-24T08:55:40Z</time>
      </trkpt>
      <trkpt lat="45.13513" lon="5.91086">
        <ele>1965</ele>
        <time>2026-03-24T08:56:04Z</time>
      </trkpt>
      <trkpt lat="45.13506" lon="5.91099">
        <ele>1968</ele>
        <time>2026-03-24T08:56:28Z</time>
      </trkpt>
      <trkpt lat="45.13512" lon="5.91112">
        <ele>1973</ele>
        <time>2026-03-24T08:56:58Z</time>
      </trkpt>
      <trkpt lat="45.1352" lon="5.9111">
        <ele>1975</ele>
        <time>2026-03-24T08:57:13Z</time>
      </trkpt>
      <trkpt lat="45.13527" lon="5.91121">
        <ele>1982</ele>
        <time>2026-03-24T08:57:55Z</time>
      </trkpt>
      <trkpt lat="45.13517" lon="5.91142">
        <ele>1987</ele>
        <time>2026-03-24T08:58:31Z</time>
      </trkpt>
      <trkpt lat="45.13526" lon="5.91153">
        <ele>1992</ele>
        <time>2026-03-24T08:59:12Z</time>
      </trkpt>
      <trkpt lat="45.13517" lon="5.91168">
        <ele>1998</ele>
        <time>2026-03-24T08:59:58Z</time>
      </trkpt>
      <trkpt lat="45.13517" lon="5.91183">
        <ele>2004</ele>
        <time>2026-03-24T09:00:46Z</time>
      </trkpt>
      <trkpt lat="45.13515" lon="5.91197">
        <ele>2009</ele>
        <time>2026-03-24T09:01:25Z</time>
      </trkpt>
      <trkpt lat="45.13513" lon="5.91201">
        <ele>2013</ele>
        <time>2026-03-24T09:01:56Z</time>
      </trkpt>
      <trkpt lat="45.13505" lon="5.912">
        <ele>2016</ele>
        <time>2026-03-24T09:02:14Z</time>
      </trkpt>
      <trkpt lat="45.13511" lon="5.91215">
        <ele>2018</ele>
        <time>2026-03-24T09:02:38Z</time>
      </trkpt>
      <trkpt lat="45.13503" lon="5.91219">
        <ele>2024</ele>
        <time>2026-03-24T09:03:19Z</time>
      </trkpt>
      <trkpt lat="45.13497" lon="5.91218">
        <ele>2026</ele>
        <time>2026-03-24T09:03:31Z</time>
      </trkpt>
      <trkpt lat="45.13491" lon="5.91224">
        <ele>2030</ele>
        <time>2026-03-24T09:04:07Z</time>
      </trkpt>
      <trkpt lat="45.13487" lon="5.91237">
        <ele>2032</ele>
        <time>2026-03-24T09:05:13Z</time>
      </trkpt>
      <trkpt lat="45.13473" lon="5.91257">
        <ele>2037</ele>
        <time>2026-03-24T09:05:48Z</time>
      </trkpt>
      <trkpt lat="45.13456" lon="5.91285">
        <ele>2041</ele>
        <time>2026-03-24T09:06:25Z</time>
      </trkpt>
      <trkpt lat="45.13448" lon="5.91293">
        <ele>2042</ele>
        <time>2026-03-24T09:06:38Z</time>
      </trkpt>
      <trkpt lat="45.13446" lon="5.91304">
        <ele>2043</ele>
        <time>2026-03-24T09:06:50Z</time>
      </trkpt>
      <trkpt lat="45.13437" lon="5.91319">
        <ele>2042</ele>
        <time>2026-03-24T09:08:27Z</time>
      </trkpt>
      <trkpt lat="45.13431" lon="5.91336">
        <ele>2042</ele>
        <time>2026-03-24T09:08:38Z</time>
      </trkpt>
      <trkpt lat="45.13428" lon="5.91342">
        <ele>2042</ele>
        <time>2026-03-24T09:08:41Z</time>
      </trkpt>
      <trkpt lat="45.13423" lon="5.91343">
        <ele>2041</ele>
        <time>2026-03-24T09:08:44Z</time>
      </trkpt>
      <trkpt lat="45.13418" lon="5.91348">
        <ele>2040</ele>
        <time>2026-03-24T09:08:49Z</time>
      </trkpt>
      <trkpt lat="45.13416" lon="5.91356">
        <ele>2040</ele>
        <time>2026-03-24T09:08:54Z</time>
      </trkpt>
      <trkpt lat="45.13414" lon="5.91363">
        <ele>2040</ele>
        <time>2026-03-24T09:08:59Z</time>
      </trkpt>
      <trkpt lat="45.13411" lon="5.91374">
        <ele>2040</ele>
        <time>2026-03-24T09:13:54Z</time>
      </trkpt>
      <trkpt lat="45.13408" lon="5.91396">
        <ele>2040</ele>
        <time>2026-03-24T09:14:11Z</time>
      </trkpt>
      <trkpt lat="45.134" lon="5.91428">
        <ele>2036</ele>
        <time>2026-03-24T09:14:18Z</time>
      </trkpt>
      <trkpt lat="45.13388" lon="5.91467">
        <ele>2032</ele>
        <time>2026-03-24T09:14:25Z</time>
      </trkpt>
      <trkpt lat="45.13384" lon="5.91487">
        <ele>2028</ele>
        <time>2026-03-24T09:14:54Z</time>
      </trkpt>
      <trkpt lat="45.13374" lon="5.91534">
        <ele>2025</ele>
        <time>2026-03-24T09:15:20Z</time>
      </trkpt>
      <trkpt lat="45.13364" lon="5.9155">
        <ele>2023</ele>
        <time>2026-03-24T09:15:23Z</time>
      </trkpt>
      <trkpt lat="45.13359" lon="5.91563">
        <ele>2022</ele>
        <time>2026-03-24T09:15:28Z</time>
      </trkpt>
      <trkpt lat="45.13357" lon="5.9159">
        <ele>2021</ele>
        <time>2026-03-24T09:15:35Z</time>
      </trkpt>
      <trkpt lat="45.13354" lon="5.91622">
        <ele>2018</ele>
        <time>2026-03-24T09:15:56Z</time>
      </trkpt>
      <trkpt lat="45.13354" lon="5.91685">
        <ele>2015</ele>
        <time>2026-03-24T09:16:16Z</time>
      </trkpt>
      <trkpt lat="45.13352" lon="5.91698">
        <ele>2014</ele>
        <time>2026-03-24T09:16:25Z</time>
      </trkpt>
      <trkpt lat="45.13349" lon="5.91706">
        <ele>2014</ele>
        <time>2026-03-24T09:16:37Z</time>
      </trkpt>
      <trkpt lat="45.13344" lon="5.91737">
        <ele>2015</ele>
        <time>2026-03-24T09:18:28Z</time>
      </trkpt>
      <trkpt lat="45.13357" lon="5.91792">
        <ele>2012</ele>
        <time>2026-03-24T09:18:38Z</time>
      </trkpt>
      <trkpt lat="45.13393" lon="5.91833">
        <ele>2005</ele>
        <time>2026-03-24T09:18:48Z</time>
      </trkpt>
      <trkpt lat="45.134" lon="5.91871">
        <ele>2001</ele>
        <time>2026-03-24T09:18:54Z</time>
      </trkpt>
      <trkpt lat="45.134" lon="5.91899">
        <ele>1998</ele>
        <time>2026-03-24T09:19:18Z</time>
      </trkpt>
      <trkpt lat="45.13403" lon="5.91911">
        <ele>1998</ele>
        <time>2026-03-24T09:19:41Z</time>
      </trkpt>
      <trkpt lat="45.13408" lon="5.9193">
        <ele>1999</ele>
        <time>2026-03-24T09:20:06Z</time>
      </trkpt>
      <trkpt lat="45.13417" lon="5.91946">
        <ele>1999</ele>
        <time>2026-03-24T09:20:30Z</time>
      </trkpt>
      <trkpt lat="45.13435" lon="5.91984">
        <ele>1997</ele>
        <time>2026-03-24T09:20:51Z</time>
      </trkpt>
      <trkpt lat="45.13436" lon="5.91994">
        <ele>1996</ele>
        <time>2026-03-24T09:20:53Z</time>
      </trkpt>
      <trkpt lat="45.13444" lon="5.92004">
        <ele>1994</ele>
        <time>2026-03-24T09:20:56Z</time>
      </trkpt>
      <trkpt lat="45.13445" lon="5.92014">
        <ele>1993</ele>
        <time>2026-03-24T09:20:58Z</time>
      </trkpt>
      <trkpt lat="45.13453" lon="5.92016">
        <ele>1991</ele>
        <time>2026-03-24T09:21:00Z</time>
      </trkpt>
      <trkpt lat="45.13466" lon="5.92053">
        <ele>1982</ele>
        <time>2026-03-24T09:21:07Z</time>
      </trkpt>
      <trkpt lat="45.13463" lon="5.92065">
        <ele>1975</ele>
        <time>2026-03-24T09:21:11Z</time>
      </trkpt>
      <trkpt lat="45.13455" lon="5.92078">
        <ele>1969</ele>
        <time>2026-03-24T09:21:22Z</time>
      </trkpt>
      <trkpt lat="45.13443" lon="5.9209">
        <ele>1961</ele>
        <time>2026-03-24T09:21:37Z</time>
      </trkpt>
      <trkpt lat="45.13436" lon="5.92099">
        <ele>1959</ele>
        <time>2026-03-24T09:21:40Z</time>
      </trkpt>
      <trkpt lat="45.13445" lon="5.92104">
        <ele>1957</ele>
        <time>2026-03-24T09:21:49Z</time>
      </trkpt>
      <trkpt lat="45.13462" lon="5.92114">
        <ele>1954</ele>
        <time>2026-03-24T09:22:03Z</time>
      </trkpt>
      <trkpt lat="45.13475" lon="5.92123">
        <ele>1954</ele>
        <time>2026-03-24T09:22:23Z</time>
      </trkpt>
      <trkpt lat="45.13489" lon="5.92133">
        <ele>1953</ele>
        <time>2026-03-24T09:22:40Z</time>
      </trkpt>
      <trkpt lat="45.13517" lon="5.92145">
        <ele>1950</ele>
        <time>2026-03-24T09:22:49Z</time>
      </trkpt>
      <trkpt lat="45.13558" lon="5.92174">
        <ele>1942</ele>
        <time>2026-03-24T09:23:06Z</time>
      </trkpt>
      <trkpt lat="45.13571" lon="5.92177">
        <ele>1942</ele>
        <time>2026-03-24T09:23:22Z</time>
      </trkpt>
      <trkpt lat="45.13583" lon="5.92197">
        <ele>1947</ele>
        <time>2026-03-24T09:30:26Z</time>
      </trkpt>
      <trkpt lat="45.13599" lon="5.92214">
        <ele>1951</ele>
        <time>2026-03-24T09:31:04Z</time>
      </trkpt>
      <trkpt lat="45.13607" lon="5.92228">
        <ele>1953</ele>
        <time>2026-03-24T09:31:22Z</time>
      </trkpt>
      <trkpt lat="45.13624" lon="5.92248">
        <ele>1956</ele>
        <time>2026-03-24T09:31:57Z</time>
      </trkpt>
      <trkpt lat="45.13632" lon="5.9226">
        <ele>1957</ele>
        <time>2026-03-24T09:32:15Z</time>
      </trkpt>
      <trkpt lat="45.13641" lon="5.92281">
        <ele>1958</ele>
        <time>2026-03-24T09:32:39Z</time>
      </trkpt>
      <trkpt lat="45.13661" lon="5.92306">
        <ele>1958</ele>
        <time>2026-03-24T09:33:21Z</time>
      </trkpt>
      <trkpt lat="45.13676" lon="5.92312">
        <ele>1961</ele>
        <time>2026-03-24T09:33:48Z</time>
      </trkpt>
      <trkpt lat="45.13684" lon="5.92328">
        <ele>1964</ele>
        <time>2026-03-24T09:34:11Z</time>
      </trkpt>
      <trkpt lat="45.13694" lon="5.92346">
        <ele>1964</ele>
        <time>2026-03-24T09:34:30Z</time>
      </trkpt>
      <trkpt lat="45.13716" lon="5.92365">
        <ele>1968</ele>
        <time>2026-03-24T09:35:05Z</time>
      </trkpt>
      <trkpt lat="45.13737" lon="5.92381">
        <ele>1967</ele>
        <time>2026-03-24T09:38:32Z</time>
      </trkpt>
      <trkpt lat="45.1375" lon="5.9239">
        <ele>1966</ele>
        <time>2026-03-24T09:38:43Z</time>
      </trkpt>
      <trkpt lat="45.13758" lon="5.92395">
        <ele>1966</ele>
        <time>2026-03-24T09:38:52Z</time>
      </trkpt>
      <trkpt lat="45.13766" lon="5.92401">
        <ele>1967</ele>
        <time>2026-03-24T09:39:06Z</time>
      </trkpt>
      <trkpt lat="45.13773" lon="5.92409">
        <ele>1968</ele>
        <time>2026-03-24T09:39:17Z</time>
      </trkpt>
      <trkpt lat="45.13782" lon="5.92417">
        <ele>1967</ele>
        <time>2026-03-24T09:39:30Z</time>
      </trkpt>
      <trkpt lat="45.138" lon="5.92428">
        <ele>1969</ele>
        <time>2026-03-24T09:39:56Z</time>
      </trkpt>
      <trkpt lat="45.13809" lon="5.92437">
        <ele>1970</ele>
        <time>2026-03-24T09:40:10Z</time>
      </trkpt>
      <trkpt lat="45.13831" lon="5.92456">
        <ele>1969</ele>
        <time>2026-03-24T09:40:41Z</time>
      </trkpt>
      <trkpt lat="45.13841" lon="5.92461">
        <ele>1968</ele>
        <time>2026-03-24T09:40:52Z</time>
      </trkpt>
      <trkpt lat="45.13853" lon="5.92465">
        <ele>1969</ele>
        <time>2026-03-24T09:41:08Z</time>
      </trkpt>
      <trkpt lat="45.13868" lon="5.92467">
        <ele>1971</ele>
        <time>2026-03-24T09:41:29Z</time>
      </trkpt>
      <trkpt lat="45.13882" lon="5.92474">
        <ele>1973</ele>
        <time>2026-03-24T09:41:53Z</time>
      </trkpt>
      <trkpt lat="45.13895" lon="5.92476">
        <ele>1976</ele>
        <time>2026-03-24T09:44:03Z</time>
      </trkpt>
      <trkpt lat="45.13917" lon="5.92473">
        <ele>1979</ele>
        <time>2026-03-24T09:44:40Z</time>
      </trkpt>
      <trkpt lat="45.13927" lon="5.92471">
        <ele>1979</ele>
        <time>2026-03-24T09:44:53Z</time>
      </trkpt>
      <trkpt lat="45.13936" lon="5.92471">
        <ele>1982</ele>
        <time>2026-03-24T09:45:18Z</time>
      </trkpt>
      <trkpt lat="45.13947" lon="5.92465">
        <ele>1984</ele>
        <time>2026-03-24T09:45:38Z</time>
      </trkpt>
      <trkpt lat="45.1395" lon="5.92472">
        <ele>1993</ele>
        <time>2026-03-24T09:47:19Z</time>
      </trkpt>
      <trkpt lat="45.13955" lon="5.92481">
        <ele>1998</ele>
        <time>2026-03-24T09:48:04Z</time>
      </trkpt>
      <trkpt lat="45.13957" lon="5.92488">
        <ele>2003</ele>
        <time>2026-03-24T09:48:52Z</time>
      </trkpt>
      <trkpt lat="45.13965" lon="5.92488">
        <ele>2006</ele>
        <time>2026-03-24T09:49:27Z</time>
      </trkpt>
      <trkpt lat="45.13972" lon="5.92499">
        <ele>2012</ele>
        <time>2026-03-24T09:50:39Z</time>
      </trkpt>
      <trkpt lat="45.13966" lon="5.9251">
        <ele>2017</ele>
        <time>2026-03-24T09:51:15Z</time>
      </trkpt>
      <trkpt lat="45.13973" lon="5.92511">
        <ele>2018</ele>
        <time>2026-03-24T09:51:32Z</time>
      </trkpt>
      <trkpt lat="45.13983" lon="5.9251">
        <ele>2020</ele>
        <time>2026-03-24T09:52:01Z</time>
      </trkpt>
      <trkpt lat="45.13975" lon="5.92523">
        <ele>2024</ele>
        <time>2026-03-24T09:52:25Z</time>
      </trkpt>
      <trkpt lat="45.13975" lon="5.92537">
        <ele>2027</ele>
        <time>2026-03-24T09:53:01Z</time>
      </trkpt>
      <trkpt lat="45.13971" lon="5.9255">
        <ele>2030</ele>
        <time>2026-03-24T09:53:36Z</time>
      </trkpt>
      <trkpt lat="45.13967" lon="5.92575">
        <ele>2035</ele>
        <time>2026-03-24T09:54:17Z</time>
      </trkpt>
      <trkpt lat="45.13967" lon="5.92586">
        <ele>2036</ele>
        <time>2026-03-24T09:54:29Z</time>
      </trkpt>
      <trkpt lat="45.13966" lon="5.92598">
        <ele>2039</ele>
        <time>2026-03-24T09:54:47Z</time>
      </trkpt>
      <trkpt lat="45.1397" lon="5.92625">
        <ele>2043</ele>
        <time>2026-03-24T09:55:23Z</time>
      </trkpt>
      <trkpt lat="45.13976" lon="5.92648">
        <ele>2048</ele>
        <time>2026-03-24T09:55:58Z</time>
      </trkpt>
      <trkpt lat="45.13981" lon="5.92674">
        <ele>2053</ele>
        <time>2026-03-24T09:56:40Z</time>
      </trkpt>
      <trkpt lat="45.13993" lon="5.92705">
        <ele>2059</ele>
        <time>2026-03-24T09:57:28Z</time>
      </trkpt>
      <trkpt lat="45.13998" lon="5.92716">
        <ele>2061</ele>
        <time>2026-03-24T09:57:45Z</time>
      </trkpt>
      <trkpt lat="45.14003" lon="5.92724">
        <ele>2062</ele>
        <time>2026-03-24T09:58:04Z</time>
      </trkpt>
      <trkpt lat="45.14009" lon="5.92736">
        <ele>2064</ele>
        <time>2026-03-24T09:58:22Z</time>
      </trkpt>
      <trkpt lat="45.14018" lon="5.92744">
        <ele>2066</ele>
        <time>2026-03-24T09:58:46Z</time>
      </trkpt>
      <trkpt lat="45.14021" lon="5.92761">
        <ele>2074</ele>
        <time>2026-03-24T09:59:34Z</time>
      </trkpt>
      <trkpt lat="45.14029" lon="5.92772">
        <ele>2077</ele>
        <time>2026-03-24T09:59:57Z</time>
      </trkpt>
      <trkpt lat="45.1403" lon="5.92788">
        <ele>2080</ele>
        <time>2026-03-24T10:00:33Z</time>
      </trkpt>
      <trkpt lat="45.14039" lon="5.92797">
        <ele>2081</ele>
        <time>2026-03-24T10:00:47Z</time>
      </trkpt>
      <trkpt lat="45.14047" lon="5.92808">
        <ele>2080</ele>
        <time>2026-03-24T10:01:01Z</time>
      </trkpt>
      <trkpt lat="45.14053" lon="5.9282">
        <ele>2082</ele>
        <time>2026-03-24T10:01:15Z</time>
      </trkpt>
      <trkpt lat="45.1406" lon="5.92833">
        <ele>2085</ele>
        <time>2026-03-24T10:01:51Z</time>
      </trkpt>
      <trkpt lat="45.14069" lon="5.92852">
        <ele>2086</ele>
        <time>2026-03-24T10:02:14Z</time>
      </trkpt>
      <trkpt lat="45.14077" lon="5.9287">
        <ele>2088</ele>
        <time>2026-03-24T10:02:35Z</time>
      </trkpt>
      <trkpt lat="45.14076" lon="5.9289">
        <ele>2091</ele>
        <time>2026-03-24T10:02:59Z</time>
      </trkpt>
      <trkpt lat="45.14086" lon="5.92894">
        <ele>2097</ele>
        <time>2026-03-24T10:03:47Z</time>
      </trkpt>
      <trkpt lat="45.14084" lon="5.9291">
        <ele>2103</ele>
        <time>2026-03-24T10:04:40Z</time>
      </trkpt>
      <trkpt lat="45.14097" lon="5.92907">
        <ele>2105</ele>
        <time>2026-03-24T10:04:58Z</time>
      </trkpt>
      <trkpt lat="45.14096" lon="5.92922">
        <ele>2111</ele>
        <time>2026-03-24T10:05:40Z</time>
      </trkpt>
      <trkpt lat="45.14104" lon="5.92933">
        <ele>2113</ele>
        <time>2026-03-24T10:06:15Z</time>
      </trkpt>
      <trkpt lat="45.14113" lon="5.92941">
        <ele>2113</ele>
        <time>2026-03-24T10:06:39Z</time>
      </trkpt>
      <trkpt lat="45.14122" lon="5.92946">
        <ele>2114</ele>
        <time>2026-03-24T10:07:51Z</time>
      </trkpt>
      <trkpt lat="45.14131" lon="5.92947">
        <ele>2115</ele>
        <time>2026-03-24T10:08:08Z</time>
      </trkpt>
      <trkpt lat="45.14142" lon="5.92953">
        <ele>2117</ele>
        <time>2026-03-24T10:08:26Z</time>
      </trkpt>
      <trkpt lat="45.14157" lon="5.92986">
        <ele>2120</ele>
        <time>2026-03-24T10:09:03Z</time>
      </trkpt>
      <trkpt lat="45.14161" lon="5.92995">
        <ele>2121</ele>
        <time>2026-03-24T10:09:15Z</time>
      </trkpt>
      <trkpt lat="45.14172" lon="5.93007">
        <ele>2123</ele>
        <time>2026-03-24T10:09:51Z</time>
      </trkpt>
      <trkpt lat="45.14177" lon="5.93021">
        <ele>2125</ele>
        <time>2026-03-24T10:10:08Z</time>
      </trkpt>
      <trkpt lat="45.14178" lon="5.93038">
        <ele>2127</ele>
        <time>2026-03-24T10:10:50Z</time>
      </trkpt>
      <trkpt lat="45.14189" lon="5.93066">
        <ele>2132</ele>
        <time>2026-03-24T10:11:26Z</time>
      </trkpt>
      <trkpt lat="45.14205" lon="5.93096">
        <ele>2134</ele>
        <time>2026-03-24T10:12:02Z</time>
      </trkpt>
      <trkpt lat="45.1421" lon="5.93105">
        <ele>2134</ele>
        <time>2026-03-24T10:12:13Z</time>
      </trkpt>
      <trkpt lat="45.14211" lon="5.93122">
        <ele>2134</ele>
        <time>2026-03-24T10:18:33Z</time>
      </trkpt>
      <trkpt lat="45.14217" lon="5.93139">
        <ele>2134</ele>
        <time>2026-03-24T10:19:54Z</time>
      </trkpt>
      <trkpt lat="45.14219" lon="5.93153">
        <ele>2134</ele>
        <time>2026-03-24T10:20:06Z</time>
      </trkpt>
      <trkpt lat="45.14223" lon="5.93167">
        <ele>2136</ele>
        <time>2026-03-24T10:20:17Z</time>
      </trkpt>
      <trkpt lat="45.14225" lon="5.93177">
        <ele>2136</ele>
        <time>2026-03-24T10:20:24Z</time>
      </trkpt>
      <trkpt lat="45.14226" lon="5.93183">
        <ele>2135</ele>
        <time>2026-03-24T10:20:29Z</time>
      </trkpt>
      <trkpt lat="45.14229" lon="5.93207">
        <ele>2136</ele>
        <time>2026-03-24T10:20:47Z</time>
      </trkpt>
      <trkpt lat="45.14236" lon="5.93221">
        <ele>2138</ele>
        <time>2026-03-24T10:21:07Z</time>
      </trkpt>
      <trkpt lat="45.1424" lon="5.93231">
        <ele>2139</ele>
        <time>2026-03-24T10:21:19Z</time>
      </trkpt>
      <trkpt lat="45.14253" lon="5.93246">
        <ele>2141</ele>
        <time>2026-03-24T10:21:43Z</time>
      </trkpt>
      <trkpt lat="45.14257" lon="5.93255">
        <ele>2142</ele>
        <time>2026-03-24T10:21:55Z</time>
      </trkpt>
      <trkpt lat="45.14262" lon="5.93265">
        <ele>2143</ele>
        <time>2026-03-24T10:22:18Z</time>
      </trkpt>
      <trkpt lat="45.14272" lon="5.93283">
        <ele>2145</ele>
        <time>2026-03-24T10:22:42Z</time>
      </trkpt>
      <trkpt lat="45.14292" lon="5.93307">
        <ele>2149</ele>
        <time>2026-03-24T10:23:22Z</time>
      </trkpt>
      <trkpt lat="45.14299" lon="5.93331">
        <ele>2151</ele>
        <time>2026-03-24T10:23:53Z</time>
      </trkpt>
      <trkpt lat="45.14302" lon="5.93343">
        <ele>2151</ele>
        <time>2026-03-24T10:24:05Z</time>
      </trkpt>
      <trkpt lat="45.14313" lon="5.93376">
        <ele>2156</ele>
        <time>2026-03-24T10:24:46Z</time>
      </trkpt>
      <trkpt lat="45.14325" lon="5.93386">
        <ele>2159</ele>
        <time>2026-03-24T10:25:06Z</time>
      </trkpt>
      <trkpt lat="45.14331" lon="5.93394">
        <ele>2161</ele>
        <time>2026-03-24T10:25:24Z</time>
      </trkpt>
      <trkpt lat="45.14342" lon="5.93416">
        <ele>2165</ele>
        <time>2026-03-24T10:26:00Z</time>
      </trkpt>
      <trkpt lat="45.14352" lon="5.93438">
        <ele>2169</ele>
        <time>2026-03-24T10:26:41Z</time>
      </trkpt>
      <trkpt lat="45.14371" lon="5.9346">
        <ele>2173</ele>
        <time>2026-03-24T10:27:24Z</time>
      </trkpt>
      <trkpt lat="45.14377" lon="5.93464">
        <ele>2174</ele>
        <time>2026-03-24T10:27:35Z</time>
      </trkpt>
      <trkpt lat="45.14386" lon="5.93464">
        <ele>2174</ele>
        <time>2026-03-24T10:27:47Z</time>
      </trkpt>
      <trkpt lat="45.14389" lon="5.93475">
        <ele>2178</ele>
        <time>2026-03-24T10:29:58Z</time>
      </trkpt>
      <trkpt lat="45.14384" lon="5.93492">
        <ele>2181</ele>
        <time>2026-03-24T10:32:39Z</time>
      </trkpt>
      <trkpt lat="45.14381" lon="5.93518">
        <ele>2185</ele>
        <time>2026-03-24T10:33:26Z</time>
      </trkpt>
      <trkpt lat="45.14381" lon="5.93529">
        <ele>2187</ele>
        <time>2026-03-24T10:33:44Z</time>
      </trkpt>
      <trkpt lat="45.14383" lon="5.93539">
        <ele>2188</ele>
        <time>2026-03-24T10:34:02Z</time>
      </trkpt>
      <trkpt lat="45.14383" lon="5.93563">
        <ele>2190</ele>
        <time>2026-03-24T10:34:44Z</time>
      </trkpt>
      <trkpt lat="45.14378" lon="5.93546">
        <ele>2194</ele>
        <time>2026-03-24T10:35:31Z</time>
      </trkpt>
      <trkpt lat="45.14372" lon="5.9354">
        <ele>2196</ele>
        <time>2026-03-24T10:36:00Z</time>
      </trkpt>
      <trkpt lat="45.14364" lon="5.93529">
        <ele>2199</ele>
        <time>2026-03-24T10:36:36Z</time>
      </trkpt>
      <trkpt lat="45.14358" lon="5.93521">
        <ele>2202</ele>
        <time>2026-03-24T10:37:05Z</time>
      </trkpt>
      <trkpt lat="45.14355" lon="5.93535">
        <ele>2204</ele>
        <time>2026-03-24T10:37:35Z</time>
      </trkpt>
      <trkpt lat="45.14356" lon="5.93544">
        <ele>2207</ele>
        <time>2026-03-24T10:37:59Z</time>
      </trkpt>
      <trkpt lat="45.14353" lon="5.93562">
        <ele>2211</ele>
        <time>2026-03-24T10:38:35Z</time>
      </trkpt>
      <trkpt lat="45.14355" lon="5.93573">
        <ele>2213</ele>
        <time>2026-03-24T10:38:59Z</time>
      </trkpt>
      <trkpt lat="45.14355" lon="5.93585">
        <ele>2215</ele>
        <time>2026-03-24T10:39:22Z</time>
      </trkpt>
      <trkpt lat="45.14354" lon="5.93593">
        <ele>2216</ele>
        <time>2026-03-24T10:39:40Z</time>
      </trkpt>
      <trkpt lat="45.14353" lon="5.93604">
        <ele>2218</ele>
        <time>2026-03-24T10:40:05Z</time>
      </trkpt>
      <trkpt lat="45.14348" lon="5.93593">
        <ele>2222</ele>
        <time>2026-03-24T10:40:59Z</time>
      </trkpt>
      <trkpt lat="45.14342" lon="5.93583">
        <ele>2225</ele>
        <time>2026-03-24T10:41:22Z</time>
      </trkpt>
      <trkpt lat="45.14335" lon="5.93586">
        <ele>2230</ele>
        <time>2026-03-24T10:42:51Z</time>
      </trkpt>
      <trkpt lat="45.14334" lon="5.93597">
        <ele>2232</ele>
        <time>2026-03-24T10:43:15Z</time>
      </trkpt>
      <trkpt lat="45.1433" lon="5.93597">
        <ele>2237</ele>
        <time>2026-03-24T10:43:56Z</time>
      </trkpt>
      <trkpt lat="45.14326" lon="5.93591">
        <ele>2239</ele>
        <time>2026-03-24T10:44:26Z</time>
      </trkpt>
      <trkpt lat="45.14323" lon="5.93587">
        <ele>2240</ele>
        <time>2026-03-24T10:44:38Z</time>
      </trkpt>
      <trkpt lat="45.14314" lon="5.93574">
        <ele>2244</ele>
        <time>2026-03-24T10:45:14Z</time>
      </trkpt>
      <trkpt lat="45.14312" lon="5.93582">
        <ele>2246</ele>
        <time>2026-03-24T10:45:43Z</time>
      </trkpt>
      <trkpt lat="45.14313" lon="5.93603">
        <ele>2250</ele>
        <time>2026-03-24T10:46:23Z</time>
      </trkpt>
      <trkpt lat="45.14314" lon="5.93622">
        <ele>2254</ele>
        <time>2026-03-24T10:47:05Z</time>
      </trkpt>
      <trkpt lat="45.14314" lon="5.93629">
        <ele>2255</ele>
        <time>2026-03-24T10:47:17Z</time>
      </trkpt>
      <trkpt lat="45.1431" lon="5.93624">
        <ele>2259</ele>
        <time>2026-03-24T10:48:04Z</time>
      </trkpt>
      <trkpt lat="45.14304" lon="5.93615">
        <ele>2261</ele>
        <time>2026-03-24T10:48:28Z</time>
      </trkpt>
      <trkpt lat="45.14297" lon="5.93608">
        <ele>2264</ele>
        <time>2026-03-24T10:48:52Z</time>
      </trkpt>
      <trkpt lat="45.14294" lon="5.93616">
        <ele>2266</ele>
        <time>2026-03-24T10:49:33Z</time>
      </trkpt>
      <trkpt lat="45.14295" lon="5.93625">
        <ele>2268</ele>
        <time>2026-03-24T10:49:51Z</time>
      </trkpt>
      <trkpt lat="45.14297" lon="5.93642">
        <ele>2272</ele>
        <time>2026-03-24T10:50:27Z</time>
      </trkpt>
      <trkpt lat="45.143" lon="5.93656">
        <ele>2274</ele>
        <time>2026-03-24T10:50:55Z</time>
      </trkpt>
      <trkpt lat="45.14303" lon="5.93677">
        <ele>2279</ele>
        <time>2026-03-24T10:52:41Z</time>
      </trkpt>
      <trkpt lat="45.14297" lon="5.93677">
        <ele>2284</ele>
        <time>2026-03-24T10:53:58Z</time>
      </trkpt>
      <trkpt lat="45.1429" lon="5.93671">
        <ele>2286</ele>
        <time>2026-03-24T10:54:35Z</time>
      </trkpt>
      <trkpt lat="45.14287" lon="5.93666">
        <ele>2287</ele>
        <time>2026-03-24T10:54:47Z</time>
      </trkpt>
      <trkpt lat="45.14285" lon="5.93677">
        <ele>2292</ele>
        <time>2026-03-24T10:55:53Z</time>
      </trkpt>
      <trkpt lat="45.1429" lon="5.93698">
        <ele>2295</ele>
        <time>2026-03-24T10:57:17Z</time>
      </trkpt>
      <trkpt lat="45.14293" lon="5.93707">
        <ele>2296</ele>
        <time>2026-03-24T10:57:59Z</time>
      </trkpt>
      <trkpt lat="45.14284" lon="5.93711">
        <ele>2302</ele>
        <time>2026-03-24T11:00:34Z</time>
      </trkpt>
      <trkpt lat="45.14282" lon="5.93726">
        <ele>2305</ele>
        <time>2026-03-24T11:01:11Z</time>
      </trkpt>
      <trkpt lat="45.14284" lon="5.93735">
        <ele>2306</ele>
        <time>2026-03-24T11:01:29Z</time>
      </trkpt>
      <trkpt lat="45.14285" lon="5.93748">
        <ele>2308</ele>
        <time>2026-03-24T11:02:22Z</time>
      </trkpt>
      <trkpt lat="45.14286" lon="5.93764">
        <ele>2311</ele>
        <time>2026-03-24T11:03:17Z</time>
      </trkpt>
      <trkpt lat="45.14282" lon="5.93787">
        <ele>2314</ele>
        <time>2026-03-24T11:04:11Z</time>
      </trkpt>
      <trkpt lat="45.14279" lon="5.93777">
        <ele>2318</ele>
        <time>2026-03-24T11:04:52Z</time>
      </trkpt>
      <trkpt lat="45.14275" lon="5.9377">
        <ele>2320</ele>
        <time>2026-03-24T11:05:11Z</time>
      </trkpt>
      <trkpt lat="45.1427" lon="5.93759">
        <ele>2323</ele>
        <time>2026-03-24T11:05:53Z</time>
      </trkpt>
      <trkpt lat="45.14266" lon="5.93749">
        <ele>2326</ele>
        <time>2026-03-24T11:06:17Z</time>
      </trkpt>
      <trkpt lat="45.14259" lon="5.93761">
        <ele>2330</ele>
        <time>2026-03-24T11:07:28Z</time>
      </trkpt>
      <trkpt lat="45.14257" lon="5.93771">
        <ele>2332</ele>
        <time>2026-03-24T11:07:46Z</time>
      </trkpt>
      <trkpt lat="45.14252" lon="5.93757">
        <ele>2335</ele>
        <time>2026-03-24T11:08:33Z</time>
      </trkpt>
      <trkpt lat="45.14248" lon="5.93748">
        <ele>2337</ele>
        <time>2026-03-24T11:08:51Z</time>
      </trkpt>
      <trkpt lat="45.14243" lon="5.93743">
        <ele>2339</ele>
        <time>2026-03-24T11:09:09Z</time>
      </trkpt>
      <trkpt lat="45.14235" lon="5.93733">
        <ele>2342</ele>
        <time>2026-03-24T11:09:57Z</time>
      </trkpt>
      <trkpt lat="45.14228" lon="5.93727">
        <ele>2345</ele>
        <time>2026-03-24T11:10:21Z</time>
      </trkpt>
      <trkpt lat="45.14219" lon="5.93716">
        <ele>2349</ele>
        <time>2026-03-24T11:11:08Z</time>
      </trkpt>
      <trkpt lat="45.14206" lon="5.93705">
        <ele>2352</ele>
        <time>2026-03-24T11:11:39Z</time>
      </trkpt>
      <trkpt lat="45.142" lon="5.93702">
        <ele>2354</ele>
        <time>2026-03-24T11:11:57Z</time>
      </trkpt>
      <trkpt lat="45.14193" lon="5.937">
        <ele>2356</ele>
        <time>2026-03-24T11:12:15Z</time>
      </trkpt>
      <trkpt lat="45.14188" lon="5.93697">
        <ele>2358</ele>
        <time>2026-03-24T11:12:33Z</time>
      </trkpt>
      <trkpt lat="45.14177" lon="5.93697">
        <ele>2362</ele>
        <time>2026-03-24T11:13:08Z</time>
      </trkpt>
      <trkpt lat="45.14174" lon="5.93713">
        <ele>2364</ele>
        <time>2026-03-24T11:13:27Z</time>
      </trkpt>
      <trkpt lat="45.14174" lon="5.93723">
        <ele>2366</ele>
        <time>2026-03-24T11:13:51Z</time>
      </trkpt>
      <trkpt lat="45.14165" lon="5.93707">
        <ele>2369</ele>
        <time>2026-03-24T11:16:14Z</time>
      </trkpt>
      <trkpt lat="45.14156" lon="5.93701">
        <ele>2372</ele>
        <time>2026-03-24T11:16:49Z</time>
      </trkpt>
      <trkpt lat="45.14149" lon="5.93693">
        <ele>2375</ele>
        <time>2026-03-24T11:17:25Z</time>
      </trkpt>
      <trkpt lat="45.14141" lon="5.93682">
        <ele>2379</ele>
        <time>2026-03-24T11:18:12Z</time>
      </trkpt>
      <trkpt lat="45.14129" lon="5.93668">
        <ele>2384</ele>
        <time>2026-03-24T11:18:59Z</time>
      </trkpt>
      <trkpt lat="45.14121" lon="5.93658">
        <ele>2388</ele>
        <time>2026-03-24T11:19:41Z</time>
      </trkpt>
      <trkpt lat="45.14112" lon="5.93666">
        <ele>2391</ele>
        <time>2026-03-24T11:20:46Z</time>
      </trkpt>
      <trkpt lat="45.14106" lon="5.93668">
        <ele>2395</ele>
        <time>2026-03-24T11:22:17Z</time>
      </trkpt>
      <trkpt lat="45.14097" lon="5.93675">
        <ele>2402</ele>
        <time>2026-03-24T11:23:59Z</time>
      </trkpt>
      <trkpt lat="45.14093" lon="5.93674">
        <ele>2406</ele>
        <time>2026-03-24T11:24:59Z</time>
      </trkpt>
      <trkpt lat="45.14089" lon="5.93685">
        <ele>2410</ele>
        <time>2026-03-24T11:25:46Z</time>
      </trkpt>
      <trkpt lat="45.14083" lon="5.93689">
        <ele>2415</ele>
        <time>2026-03-24T11:27:05Z</time>
      </trkpt>
      <trkpt lat="45.14083" lon="5.93697">
        <ele>2417</ele>
        <time>2026-03-24T11:27:22Z</time>
      </trkpt>
      <trkpt lat="45.14076" lon="5.937">
        <ele>2423</ele>
        <time>2026-03-24T11:29:34Z</time>
      </trkpt>
      <trkpt lat="45.14071" lon="5.93688">
        <ele>2425</ele>
        <time>2026-03-24T11:30:04Z</time>
      </trkpt>
      <trkpt lat="45.14065" lon="5.93687">
        <ele>2431</ele>
        <time>2026-03-24T11:32:16Z</time>
      </trkpt>
      <trkpt lat="45.14063" lon="5.93697">
        <ele>2435</ele>
        <time>2026-03-24T11:32:41Z</time>
      </trkpt>
      <trkpt lat="45.14077" lon="5.93695">
        <ele>2432</ele>
        <time>2026-03-24T11:48:06Z</time>
      </trkpt>
      <trkpt lat="45.14097" lon="5.93685">
        <ele>2420</ele>
        <time>2026-03-24T11:48:17Z</time>
      </trkpt>
      <trkpt lat="45.14105" lon="5.93681">
        <ele>2411</ele>
        <time>2026-03-24T11:48:21Z</time>
      </trkpt>
      <trkpt lat="45.14111" lon="5.93672">
        <ele>2404</ele>
        <time>2026-03-24T11:48:24Z</time>
      </trkpt>
      <trkpt lat="45.14118" lon="5.93667">
        <ele>2396</ele>
        <time>2026-03-24T11:48:27Z</time>
      </trkpt>
      <trkpt lat="45.14122" lon="5.93675">
        <ele>2392</ele>
        <time>2026-03-24T11:48:29Z</time>
      </trkpt>
      <trkpt lat="45.14126" lon="5.93662">
        <ele>2388</ele>
        <time>2026-03-24T11:48:32Z</time>
      </trkpt>
      <trkpt lat="45.14133" lon="5.93656">
        <ele>2384</ele>
        <time>2026-03-24T11:48:35Z</time>
      </trkpt>
      <trkpt lat="45.14134" lon="5.93646">
        <ele>2380</ele>
        <time>2026-03-24T11:48:37Z</time>
      </trkpt>
      <trkpt lat="45.14143" lon="5.93646">
        <ele>2372</ele>
        <time>2026-03-24T11:48:44Z</time>
      </trkpt>
      <trkpt lat="45.1415" lon="5.93647">
        <ele>2370</ele>
        <time>2026-03-24T11:48:47Z</time>
      </trkpt>
      <trkpt lat="45.14155" lon="5.9364">
        <ele>2366</ele>
        <time>2026-03-24T11:48:49Z</time>
      </trkpt>
      <trkpt lat="45.14152" lon="5.9363">
        <ele>2360</ele>
        <time>2026-03-24T11:48:53Z</time>
      </trkpt>
      <trkpt lat="45.14153" lon="5.93611">
        <ele>2356</ele>
        <time>2026-03-24T11:50:41Z</time>
      </trkpt>
      <trkpt lat="45.14153" lon="5.93598">
        <ele>2350</ele>
        <time>2026-03-24T11:50:53Z</time>
      </trkpt>
      <trkpt lat="45.14161" lon="5.93577">
        <ele>2343</ele>
        <time>2026-03-24T11:52:06Z</time>
      </trkpt>
      <trkpt lat="45.1417" lon="5.93574">
        <ele>2337</ele>
        <time>2026-03-24T11:52:16Z</time>
      </trkpt>
      <trkpt lat="45.14172" lon="5.93561">
        <ele>2330</ele>
        <time>2026-03-24T11:53:14Z</time>
      </trkpt>
      <trkpt lat="45.14184" lon="5.93561">
        <ele>2326</ele>
        <time>2026-03-24T11:54:07Z</time>
      </trkpt>
      <trkpt lat="45.14198" lon="5.93559">
        <ele>2312</ele>
        <time>2026-03-24T11:54:41Z</time>
      </trkpt>
      <trkpt lat="45.14201" lon="5.93548">
        <ele>2309</ele>
        <time>2026-03-24T11:54:45Z</time>
      </trkpt>
      <trkpt lat="45.14208" lon="5.93555">
        <ele>2302</ele>
        <time>2026-03-24T11:54:51Z</time>
      </trkpt>
      <trkpt lat="45.14217" lon="5.93544">
        <ele>2296</ele>
        <time>2026-03-24T11:54:58Z</time>
      </trkpt>
      <trkpt lat="45.14221" lon="5.93555">
        <ele>2294</ele>
        <time>2026-03-24T11:55:00Z</time>
      </trkpt>
      <trkpt lat="45.14224" lon="5.93542">
        <ele>2287</ele>
        <time>2026-03-24T11:55:53Z</time>
      </trkpt>
      <trkpt lat="45.14237" lon="5.93541">
        <ele>2277</ele>
        <time>2026-03-24T11:56:04Z</time>
      </trkpt>
      <trkpt lat="45.14246" lon="5.93549">
        <ele>2275</ele>
        <time>2026-03-24T11:56:06Z</time>
      </trkpt>
      <trkpt lat="45.14269" lon="5.93557">
        <ele>2263</ele>
        <time>2026-03-24T11:57:27Z</time>
      </trkpt>
      <trkpt lat="45.14281" lon="5.93544">
        <ele>2255</ele>
        <time>2026-03-24T11:57:36Z</time>
      </trkpt>
      <trkpt lat="45.14291" lon="5.93533">
        <ele>2245</ele>
        <time>2026-03-24T11:57:41Z</time>
      </trkpt>
      <trkpt lat="45.14289" lon="5.93515">
        <ele>2236</ele>
        <time>2026-03-24T11:57:46Z</time>
      </trkpt>
      <trkpt lat="45.143" lon="5.93504">
        <ele>2227</ele>
        <time>2026-03-24T11:57:51Z</time>
      </trkpt>
      <trkpt lat="45.14306" lon="5.93489">
        <ele>2218</ele>
        <time>2026-03-24T11:58:05Z</time>
      </trkpt>
      <trkpt lat="45.14321" lon="5.93491">
        <ele>2212</ele>
        <time>2026-03-24T11:58:09Z</time>
      </trkpt>
      <trkpt lat="45.14326" lon="5.93472">
        <ele>2198</ele>
        <time>2026-03-24T12:02:02Z</time>
      </trkpt>
      <trkpt lat="45.14318" lon="5.9344">
        <ele>2193</ele>
        <time>2026-03-24T12:02:07Z</time>
      </trkpt>
      <trkpt lat="45.14282" lon="5.93343">
        <ele>2172</ele>
        <time>2026-03-24T12:02:20Z</time>
      </trkpt>
      <trkpt lat="45.14268" lon="5.93268">
        <ele>2154</ele>
        <time>2026-03-24T12:02:35Z</time>
      </trkpt>
      <trkpt lat="45.14229" lon="5.93169">
        <ele>2138</ele>
        <time>2026-03-24T12:02:48Z</time>
      </trkpt>
      <trkpt lat="45.14214" lon="5.93115">
        <ele>2133</ele>
        <time>2026-03-24T12:03:12Z</time>
      </trkpt>
      <trkpt lat="45.14209" lon="5.931">
        <ele>2133</ele>
        <time>2026-03-24T12:03:19Z</time>
      </trkpt>
      <trkpt lat="45.14136" lon="5.92959">
        <ele>2116</ele>
        <time>2026-03-24T12:03:50Z</time>
      </trkpt>
      <trkpt lat="45.14125" lon="5.92951">
        <ele>2113</ele>
        <time>2026-03-24T12:03:53Z</time>
      </trkpt>
      <trkpt lat="45.14121" lon="5.92948">
        <ele>2110</ele>
        <time>2026-03-24T12:04:02Z</time>
      </trkpt>
      <trkpt lat="45.14109" lon="5.92937">
        <ele>2110</ele>
        <time>2026-03-24T12:05:14Z</time>
      </trkpt>
      <trkpt lat="45.141" lon="5.92927">
        <ele>2109</ele>
        <time>2026-03-24T12:05:23Z</time>
      </trkpt>
      <trkpt lat="45.14097" lon="5.92912">
        <ele>2108</ele>
        <time>2026-03-24T12:05:31Z</time>
      </trkpt>
      <trkpt lat="45.14082" lon="5.92914">
        <ele>2104</ele>
        <time>2026-03-24T12:05:35Z</time>
      </trkpt>
      <trkpt lat="45.14089" lon="5.92894">
        <ele>2098</ele>
        <time>2026-03-24T12:05:41Z</time>
      </trkpt>
      <trkpt lat="45.14086" lon="5.9288">
        <ele>2095</ele>
        <time>2026-03-24T12:05:45Z</time>
      </trkpt>
      <trkpt lat="45.14077" lon="5.92893">
        <ele>2094</ele>
        <time>2026-03-24T12:05:47Z</time>
      </trkpt>
      <trkpt lat="45.14071" lon="5.92899">
        <ele>2093</ele>
        <time>2026-03-24T12:05:49Z</time>
      </trkpt>
      <trkpt lat="45.14072" lon="5.92875">
        <ele>2088</ele>
        <time>2026-03-24T12:05:54Z</time>
      </trkpt>
      <trkpt lat="45.14071" lon="5.92858">
        <ele>2086</ele>
        <time>2026-03-24T12:05:56Z</time>
      </trkpt>
      <trkpt lat="45.14055" lon="5.92821">
        <ele>2081</ele>
        <time>2026-03-24T12:06:03Z</time>
      </trkpt>
      <trkpt lat="45.14046" lon="5.92806">
        <ele>2080</ele>
        <time>2026-03-24T12:06:05Z</time>
      </trkpt>
      <trkpt lat="45.14038" lon="5.92795">
        <ele>2078</ele>
        <time>2026-03-24T12:06:07Z</time>
      </trkpt>
      <trkpt lat="45.14039" lon="5.92786">
        <ele>2076</ele>
        <time>2026-03-24T12:06:40Z</time>
      </trkpt>
      <trkpt lat="45.14035" lon="5.9278">
        <ele>2076</ele>
        <time>2026-03-24T12:06:44Z</time>
      </trkpt>
      <trkpt lat="45.14018" lon="5.92763">
        <ele>2075</ele>
        <time>2026-03-24T12:06:51Z</time>
      </trkpt>
      <trkpt lat="45.14016" lon="5.92754">
        <ele>2074</ele>
        <time>2026-03-24T12:06:54Z</time>
      </trkpt>
      <trkpt lat="45.14031" lon="5.92745">
        <ele>2072</ele>
        <time>2026-03-24T12:06:57Z</time>
      </trkpt>
      <trkpt lat="45.14022" lon="5.92736">
        <ele>2070</ele>
        <time>2026-03-24T12:06:59Z</time>
      </trkpt>
      <trkpt lat="45.14008" lon="5.92732">
        <ele>2067</ele>
        <time>2026-03-24T12:07:01Z</time>
      </trkpt>
      <trkpt lat="45.14004" lon="5.92723">
        <ele>2064</ele>
        <time>2026-03-24T12:07:03Z</time>
      </trkpt>
      <trkpt lat="45.14013" lon="5.92714">
        <ele>2060</ele>
        <time>2026-03-24T12:07:06Z</time>
      </trkpt>
      <trkpt lat="45.14018" lon="5.92697">
        <ele>2058</ele>
        <time>2026-03-24T12:07:08Z</time>
      </trkpt>
      <trkpt lat="45.14015" lon="5.92686">
        <ele>2056</ele>
        <time>2026-03-24T12:07:10Z</time>
      </trkpt>
      <trkpt lat="45.14011" lon="5.92671">
        <ele>2053</ele>
        <time>2026-03-24T12:07:13Z</time>
      </trkpt>
      <trkpt lat="45.14006" lon="5.92667">
        <ele>2051</ele>
        <time>2026-03-24T12:07:15Z</time>
      </trkpt>
      <trkpt lat="45.13999" lon="5.92672">
        <ele>2048</ele>
        <time>2026-03-24T12:07:17Z</time>
      </trkpt>
      <trkpt lat="45.13998" lon="5.9266">
        <ele>2043</ele>
        <time>2026-03-24T12:07:27Z</time>
      </trkpt>
      <trkpt lat="45.14002" lon="5.92645">
        <ele>2043</ele>
        <time>2026-03-24T12:07:29Z</time>
      </trkpt>
      <trkpt lat="45.14002" lon="5.92626">
        <ele>2040</ele>
        <time>2026-03-24T12:07:34Z</time>
      </trkpt>
      <trkpt lat="45.13995" lon="5.92626">
        <ele>2039</ele>
        <time>2026-03-24T12:07:36Z</time>
      </trkpt>
      <trkpt lat="45.13988" lon="5.92554">
        <ele>2029</ele>
        <time>2026-03-24T12:07:47Z</time>
      </trkpt>
      <trkpt lat="45.1398" lon="5.92546">
        <ele>2026</ele>
        <time>2026-03-24T12:08:16Z</time>
      </trkpt>
      <trkpt lat="45.13977" lon="5.92537">
        <ele>2026</ele>
        <time>2026-03-24T12:08:18Z</time>
      </trkpt>
      <trkpt lat="45.13976" lon="5.92519">
        <ele>2020</ele>
        <time>2026-03-24T12:08:30Z</time>
      </trkpt>
      <trkpt lat="45.13984" lon="5.92514">
        <ele>2019</ele>
        <time>2026-03-24T12:08:32Z</time>
      </trkpt>
      <trkpt lat="45.1397" lon="5.92512">
        <ele>2015</ele>
        <time>2026-03-24T12:08:37Z</time>
      </trkpt>
      <trkpt lat="45.13975" lon="5.92496">
        <ele>2010</ele>
        <time>2026-03-24T12:08:43Z</time>
      </trkpt>
      <trkpt lat="45.13966" lon="5.92487">
        <ele>2003</ele>
        <time>2026-03-24T12:09:12Z</time>
      </trkpt>
      <trkpt lat="45.13955" lon="5.92476">
        <ele>1995</ele>
        <time>2026-03-24T12:09:23Z</time>
      </trkpt>
      <trkpt lat="45.13967" lon="5.92459">
        <ele>1988</ele>
        <time>2026-03-24T12:10:39Z</time>
      </trkpt>
      <trkpt lat="45.13979" lon="5.92457">
        <ele>1984</ele>
        <time>2026-03-24T12:10:43Z</time>
      </trkpt>
      <trkpt lat="45.13971" lon="5.92447">
        <ele>1978</ele>
        <time>2026-03-24T12:10:56Z</time>
      </trkpt>
      <trkpt lat="45.13973" lon="5.92428">
        <ele>1974</ele>
        <time>2026-03-24T12:11:02Z</time>
      </trkpt>
      <trkpt lat="45.13962" lon="5.92419">
        <ele>1967</ele>
        <time>2026-03-24T12:11:25Z</time>
      </trkpt>
      <trkpt lat="45.1395" lon="5.92407">
        <ele>1960</ele>
        <time>2026-03-24T12:11:33Z</time>
      </trkpt>
      <trkpt lat="45.13943" lon="5.92403">
        <ele>1954</ele>
        <time>2026-03-24T12:11:40Z</time>
      </trkpt>
      <trkpt lat="45.13934" lon="5.92397">
        <ele>1952</ele>
        <time>2026-03-24T12:11:43Z</time>
      </trkpt>
      <trkpt lat="45.13925" lon="5.92387">
        <ele>1946</ele>
        <time>2026-03-24T12:12:07Z</time>
      </trkpt>
      <trkpt lat="45.13912" lon="5.92386">
        <ele>1942</ele>
        <time>2026-03-24T12:12:11Z</time>
      </trkpt>
      <trkpt lat="45.13911" lon="5.92362">
        <ele>1939</ele>
        <time>2026-03-24T12:12:15Z</time>
      </trkpt>
      <trkpt lat="45.13889" lon="5.92354">
        <ele>1935</ele>
        <time>2026-03-24T12:12:20Z</time>
      </trkpt>
      <trkpt lat="45.1387" lon="5.92331">
        <ele>1930</ele>
        <time>2026-03-24T12:12:25Z</time>
      </trkpt>
      <trkpt lat="45.13861" lon="5.9233">
        <ele>1928</ele>
        <time>2026-03-24T12:12:27Z</time>
      </trkpt>
      <trkpt lat="45.13852" lon="5.92316">
        <ele>1924</ele>
        <time>2026-03-24T12:12:32Z</time>
      </trkpt>
      <trkpt lat="45.13837" lon="5.9226">
        <ele>1916</ele>
        <time>2026-03-24T12:12:42Z</time>
      </trkpt>
      <trkpt lat="45.13817" lon="5.92254">
        <ele>1917</ele>
        <time>2026-03-24T12:45:13Z</time>
      </trkpt>
      <trkpt lat="45.13805" lon="5.9225">
        <ele>1918</ele>
        <time>2026-03-24T12:46:12Z</time>
      </trkpt>
      <trkpt lat="45.1378" lon="5.92238">
        <ele>1920</ele>
        <time>2026-03-24T12:46:49Z</time>
      </trkpt>
      <trkpt lat="45.13765" lon="5.92236">
        <ele>1920</ele>
        <time>2026-03-24T12:47:09Z</time>
      </trkpt>
      <trkpt lat="45.13752" lon="5.92232">
        <ele>1921</ele>
        <time>2026-03-24T12:47:26Z</time>
      </trkpt>
      <trkpt lat="45.13744" lon="5.92222">
        <ele>1922</ele>
        <time>2026-03-24T12:47:44Z</time>
      </trkpt>
      <trkpt lat="45.13734" lon="5.92214">
        <ele>1924</ele>
        <time>2026-03-24T12:48:14Z</time>
      </trkpt>
      <trkpt lat="45.13724" lon="5.92212">
        <ele>1925</ele>
        <time>2026-03-24T12:48:32Z</time>
      </trkpt>
      <trkpt lat="45.13713" lon="5.9221">
        <ele>1926</ele>
        <time>2026-03-24T12:48:46Z</time>
      </trkpt>
      <trkpt lat="45.137" lon="5.92213">
        <ele>1928</ele>
        <time>2026-03-24T12:49:10Z</time>
      </trkpt>
      <trkpt lat="45.13676" lon="5.92205">
        <ele>1930</ele>
        <time>2026-03-24T12:49:45Z</time>
      </trkpt>
      <trkpt lat="45.13655" lon="5.92191">
        <ele>1934</ele>
        <time>2026-03-24T12:50:26Z</time>
      </trkpt>
      <trkpt lat="45.13645" lon="5.9219">
        <ele>1936</ele>
        <time>2026-03-24T12:50:44Z</time>
      </trkpt>
      <trkpt lat="45.13631" lon="5.92186">
        <ele>1939</ele>
        <time>2026-03-24T12:51:08Z</time>
      </trkpt>
      <trkpt lat="45.13619" lon="5.92188">
        <ele>1941</ele>
        <time>2026-03-24T12:51:26Z</time>
      </trkpt>
      <trkpt lat="45.13607" lon="5.92188">
        <ele>1941</ele>
        <time>2026-03-24T12:51:41Z</time>
      </trkpt>
      <trkpt lat="45.13591" lon="5.92188">
        <ele>1942</ele>
        <time>2026-03-24T12:52:05Z</time>
      </trkpt>
      <trkpt lat="45.13581" lon="5.92179">
        <ele>1943</ele>
        <time>2026-03-24T12:52:26Z</time>
      </trkpt>
      <trkpt lat="45.13564" lon="5.92172">
        <ele>1942</ele>
        <time>2026-03-24T12:52:48Z</time>
      </trkpt>
      <trkpt lat="45.13552" lon="5.92172">
        <ele>1943</ele>
        <time>2026-03-24T12:53:05Z</time>
      </trkpt>
      <trkpt lat="45.13541" lon="5.92167">
        <ele>1943</ele>
        <time>2026-03-24T12:53:20Z</time>
      </trkpt>
      <trkpt lat="45.13531" lon="5.9216">
        <ele>1944</ele>
        <time>2026-03-24T12:53:34Z</time>
      </trkpt>
      <trkpt lat="45.13525" lon="5.92147">
        <ele>1946</ele>
        <time>2026-03-24T12:53:52Z</time>
      </trkpt>
      <trkpt lat="45.13506" lon="5.92136">
        <ele>1950</ele>
        <time>2026-03-24T12:54:41Z</time>
      </trkpt>
      <trkpt lat="45.13496" lon="5.92129">
        <ele>1952</ele>
        <time>2026-03-24T12:54:59Z</time>
      </trkpt>
      <trkpt lat="45.13475" lon="5.92126">
        <ele>1954</ele>
        <time>2026-03-24T12:55:34Z</time>
      </trkpt>
      <trkpt lat="45.13465" lon="5.92128">
        <ele>1954</ele>
        <time>2026-03-24T12:55:47Z</time>
      </trkpt>
      <trkpt lat="45.13453" lon="5.92131">
        <ele>1955</ele>
        <time>2026-03-24T12:56:05Z</time>
      </trkpt>
      <trkpt lat="45.13432" lon="5.92128">
        <ele>1958</ele>
        <time>2026-03-24T12:56:41Z</time>
      </trkpt>
      <trkpt lat="45.13418" lon="5.92131">
        <ele>1958</ele>
        <time>2026-03-24T12:56:59Z</time>
      </trkpt>
      <trkpt lat="45.13406" lon="5.9213">
        <ele>1959</ele>
        <time>2026-03-24T12:57:17Z</time>
      </trkpt>
      <trkpt lat="45.13395" lon="5.92129">
        <ele>1962</ele>
        <time>2026-03-24T12:57:52Z</time>
      </trkpt>
      <trkpt lat="45.13383" lon="5.92121">
        <ele>1966</ele>
        <time>2026-03-24T12:58:17Z</time>
      </trkpt>
      <trkpt lat="45.13376" lon="5.92108">
        <ele>1968</ele>
        <time>2026-03-24T12:58:41Z</time>
      </trkpt>
      <trkpt lat="45.13374" lon="5.92094">
        <ele>1970</ele>
        <time>2026-03-24T12:58:59Z</time>
      </trkpt>
      <trkpt lat="45.13366" lon="5.92102">
        <ele>1972</ele>
        <time>2026-03-24T12:59:23Z</time>
      </trkpt>
      <trkpt lat="45.13361" lon="5.92133">
        <ele>1976</ele>
        <time>2026-03-24T12:59:58Z</time>
      </trkpt>
      <trkpt lat="45.13363" lon="5.92147">
        <ele>1978</ele>
        <time>2026-03-24T13:00:16Z</time>
      </trkpt>
      <trkpt lat="45.13352" lon="5.92133">
        <ele>1981</ele>
        <time>2026-03-24T13:00:52Z</time>
      </trkpt>
      <trkpt lat="45.13332" lon="5.921">
        <ele>1986</ele>
        <time>2026-03-24T13:01:40Z</time>
      </trkpt>
      <trkpt lat="45.13323" lon="5.92087">
        <ele>1988</ele>
        <time>2026-03-24T13:01:59Z</time>
      </trkpt>
      <trkpt lat="45.13316" lon="5.92078">
        <ele>1990</ele>
        <time>2026-03-24T13:02:35Z</time>
      </trkpt>
      <trkpt lat="45.13309" lon="5.92068">
        <ele>1991</ele>
        <time>2026-03-24T13:02:48Z</time>
      </trkpt>
      <trkpt lat="45.13295" lon="5.92057">
        <ele>1992</ele>
        <time>2026-03-24T13:03:09Z</time>
      </trkpt>
      <trkpt lat="45.13278" lon="5.92035">
        <ele>1993</ele>
        <time>2026-03-24T13:03:35Z</time>
      </trkpt>
      <trkpt lat="45.13273" lon="5.92033">
        <ele>1993</ele>
        <time>2026-03-24T13:03:42Z</time>
      </trkpt>
      <trkpt lat="45.13252" lon="5.92009">
        <ele>1995</ele>
        <time>2026-03-24T13:04:17Z</time>
      </trkpt>
      <trkpt lat="45.13239" lon="5.91994">
        <ele>1994</ele>
        <time>2026-03-24T13:04:33Z</time>
      </trkpt>
      <trkpt lat="45.13219" lon="5.91969">
        <ele>1996</ele>
        <time>2026-03-24T13:05:07Z</time>
      </trkpt>
      <trkpt lat="45.13216" lon="5.91964">
        <ele>1996</ele>
        <time>2026-03-24T13:05:12Z</time>
      </trkpt>
      <trkpt lat="45.13197" lon="5.91945">
        <ele>1996</ele>
        <time>2026-03-24T13:05:38Z</time>
      </trkpt>
      <trkpt lat="45.13188" lon="5.91933">
        <ele>1995</ele>
        <time>2026-03-24T13:05:48Z</time>
      </trkpt>
      <trkpt lat="45.13173" lon="5.91921">
        <ele>1994</ele>
        <time>2026-03-24T13:06:07Z</time>
      </trkpt>
      <trkpt lat="45.13153" lon="5.91919">
        <ele>1996</ele>
        <time>2026-03-24T13:06:36Z</time>
      </trkpt>
      <trkpt lat="45.13146" lon="5.91921">
        <ele>1997</ele>
        <time>2026-03-24T13:06:43Z</time>
      </trkpt>
      <trkpt lat="45.13139" lon="5.91923">
        <ele>1996</ele>
        <time>2026-03-24T13:06:48Z</time>
      </trkpt>
      <trkpt lat="45.13126" lon="5.91926">
        <ele>1994</ele>
        <time>2026-03-24T13:07:00Z</time>
      </trkpt>
      <trkpt lat="45.13114" lon="5.91928">
        <ele>1995</ele>
        <time>2026-03-24T13:07:14Z</time>
      </trkpt>
      <trkpt lat="45.13105" lon="5.91928">
        <ele>1995</ele>
        <time>2026-03-24T13:07:26Z</time>
      </trkpt>
      <trkpt lat="45.13069" lon="5.91918">
        <ele>1996</ele>
        <time>2026-03-24T13:08:10Z</time>
      </trkpt>
      <trkpt lat="45.13059" lon="5.91911">
        <ele>1996</ele>
        <time>2026-03-24T13:08:28Z</time>
      </trkpt>
      <trkpt lat="45.13042" lon="5.91898">
        <ele>2000</ele>
        <time>2026-03-24T13:09:05Z</time>
      </trkpt>
      <trkpt lat="45.13024" lon="5.91883">
        <ele>2002</ele>
        <time>2026-03-24T13:10:05Z</time>
      </trkpt>
      <trkpt lat="45.13001" lon="5.91866">
        <ele>2007</ele>
        <time>2026-03-24T13:10:52Z</time>
      </trkpt>
      <trkpt lat="45.1298" lon="5.91849">
        <ele>2013</ele>
        <time>2026-03-24T13:11:42Z</time>
      </trkpt>
      <trkpt lat="45.12971" lon="5.91838">
        <ele>2016</ele>
        <time>2026-03-24T13:12:18Z</time>
      </trkpt>
      <trkpt lat="45.12965" lon="5.91826">
        <ele>2019</ele>
        <time>2026-03-24T13:12:59Z</time>
      </trkpt>
      <trkpt lat="45.12958" lon="5.91815">
        <ele>2022</ele>
        <time>2026-03-24T13:13:23Z</time>
      </trkpt>
      <trkpt lat="45.12952" lon="5.91838">
        <ele>2026</ele>
        <time>2026-03-24T13:13:59Z</time>
      </trkpt>
      <trkpt lat="45.12951" lon="5.9185">
        <ele>2028</ele>
        <time>2026-03-24T13:14:17Z</time>
      </trkpt>
      <trkpt lat="45.12944" lon="5.91842">
        <ele>2034</ele>
        <time>2026-03-24T13:15:10Z</time>
      </trkpt>
      <trkpt lat="45.12938" lon="5.91854">
        <ele>2038</ele>
        <time>2026-03-24T13:15:53Z</time>
      </trkpt>
      <trkpt lat="45.12938" lon="5.91866">
        <ele>2040</ele>
        <time>2026-03-24T13:16:11Z</time>
      </trkpt>
      <trkpt lat="45.12929" lon="5.91873">
        <ele>2046</ele>
        <time>2026-03-24T13:17:16Z</time>
      </trkpt>
      <trkpt lat="45.12928" lon="5.91889">
        <ele>2049</ele>
        <time>2026-03-24T13:17:47Z</time>
      </trkpt>
      <trkpt lat="45.12926" lon="5.91903">
        <ele>2050</ele>
        <time>2026-03-24T13:18:05Z</time>
      </trkpt>
      <trkpt lat="45.12928" lon="5.91914">
        <ele>2052</ele>
        <time>2026-03-24T13:18:23Z</time>
      </trkpt>
      <trkpt lat="45.12922" lon="5.91919">
        <ele>2057</ele>
        <time>2026-03-24T13:19:10Z</time>
      </trkpt>
      <trkpt lat="45.12915" lon="5.91922">
        <ele>2060</ele>
        <time>2026-03-24T13:19:39Z</time>
      </trkpt>
      <trkpt lat="45.1291" lon="5.91925">
        <ele>2066</ele>
        <time>2026-03-24T13:20:21Z</time>
      </trkpt>
      <trkpt lat="45.12908" lon="5.91937">
        <ele>2069</ele>
        <time>2026-03-24T13:20:44Z</time>
      </trkpt>
      <trkpt lat="45.12903" lon="5.9194">
        <ele>2073</ele>
        <time>2026-03-24T13:21:26Z</time>
      </trkpt>
      <trkpt lat="45.12896" lon="5.91928">
        <ele>2078</ele>
        <time>2026-03-24T13:22:01Z</time>
      </trkpt>
      <trkpt lat="45.12892" lon="5.9194">
        <ele>2081</ele>
        <time>2026-03-24T13:22:43Z</time>
      </trkpt>
      <trkpt lat="45.12895" lon="5.91952">
        <ele>2084</ele>
        <time>2026-03-24T13:23:00Z</time>
      </trkpt>
      <trkpt lat="45.12897" lon="5.91964">
        <ele>2086</ele>
        <time>2026-03-24T13:23:18Z</time>
      </trkpt>
      <trkpt lat="45.12894" lon="5.91973">
        <ele>2088</ele>
        <time>2026-03-24T13:23:36Z</time>
      </trkpt>
      <trkpt lat="45.12876" lon="5.91969">
        <ele>2093</ele>
        <time>2026-03-24T13:24:22Z</time>
      </trkpt>
      <trkpt lat="45.12868" lon="5.9197">
        <ele>2096</ele>
        <time>2026-03-24T13:24:40Z</time>
      </trkpt>
      <trkpt lat="45.12859" lon="5.91966">
        <ele>2097</ele>
        <time>2026-03-24T13:24:57Z</time>
      </trkpt>
      <trkpt lat="45.12854" lon="5.9196">
        <ele>2098</ele>
        <time>2026-03-24T13:25:09Z</time>
      </trkpt>
      <trkpt lat="45.12844" lon="5.91953">
        <ele>2099</ele>
        <time>2026-03-24T13:27:27Z</time>
      </trkpt>
      <trkpt lat="45.12827" lon="5.91938">
        <ele>2099</ele>
        <time>2026-03-24T13:27:48Z</time>
      </trkpt>
      <trkpt lat="45.12822" lon="5.91929">
        <ele>2097</ele>
        <time>2026-03-24T13:28:12Z</time>
      </trkpt>
      <trkpt lat="45.12817" lon="5.91923">
        <ele>2097</ele>
        <time>2026-03-24T13:28:16Z</time>
      </trkpt>
      <trkpt lat="45.12787" lon="5.9188">
        <ele>2092</ele>
        <time>2026-03-24T13:28:49Z</time>
      </trkpt>
      <trkpt lat="45.12774" lon="5.91865">
        <ele>2088</ele>
        <time>2026-03-24T13:29:00Z</time>
      </trkpt>
      <trkpt lat="45.12758" lon="5.9185">
        <ele>2087</ele>
        <time>2026-03-24T13:29:31Z</time>
      </trkpt>
      <trkpt lat="45.12749" lon="5.91843">
        <ele>2087</ele>
        <time>2026-03-24T13:29:55Z</time>
      </trkpt>
      <trkpt lat="45.12738" lon="5.91825">
        <ele>2088</ele>
        <time>2026-03-24T13:30:18Z</time>
      </trkpt>
      <trkpt lat="45.1273" lon="5.91804">
        <ele>2090</ele>
        <time>2026-03-24T13:30:43Z</time>
      </trkpt>
      <trkpt lat="45.12727" lon="5.91795">
        <ele>2091</ele>
        <time>2026-03-24T13:30:55Z</time>
      </trkpt>
      <trkpt lat="45.12722" lon="5.9178">
        <ele>2092</ele>
        <time>2026-03-24T13:32:00Z</time>
      </trkpt>
      <trkpt lat="45.12713" lon="5.9175">
        <ele>2093</ele>
        <time>2026-03-24T13:32:32Z</time>
      </trkpt>
      <trkpt lat="45.12703" lon="5.91726">
        <ele>2096</ele>
        <time>2026-03-24T13:33:03Z</time>
      </trkpt>
      <trkpt lat="45.12693" lon="5.91697">
        <ele>2099</ele>
        <time>2026-03-24T13:33:38Z</time>
      </trkpt>
      <trkpt lat="45.1268" lon="5.9167">
        <ele>2103</ele>
        <time>2026-03-24T13:34:20Z</time>
      </trkpt>
      <trkpt lat="45.1267" lon="5.91646">
        <ele>2107</ele>
        <time>2026-03-24T13:34:56Z</time>
      </trkpt>
      <trkpt lat="45.12667" lon="5.91637">
        <ele>2108</ele>
        <time>2026-03-24T13:35:09Z</time>
      </trkpt>
      <trkpt lat="45.12661" lon="5.91602">
        <ele>2110</ele>
        <time>2026-03-24T13:35:46Z</time>
      </trkpt>
      <trkpt lat="45.12659" lon="5.91593">
        <ele>2111</ele>
        <time>2026-03-24T13:35:58Z</time>
      </trkpt>
      <trkpt lat="45.12662" lon="5.91572">
        <ele>2113</ele>
        <time>2026-03-24T13:36:23Z</time>
      </trkpt>
      <trkpt lat="45.12662" lon="5.91558">
        <ele>2114</ele>
        <time>2026-03-24T13:36:38Z</time>
      </trkpt>
      <trkpt lat="45.12662" lon="5.91553">
        <ele>2115</ele>
        <time>2026-03-24T13:36:44Z</time>
      </trkpt>
      <trkpt lat="45.1266" lon="5.91545">
        <ele>2116</ele>
        <time>2026-03-24T13:36:56Z</time>
      </trkpt>
      <trkpt lat="45.1266" lon="5.91536">
        <ele>2118</ele>
        <time>2026-03-24T13:37:08Z</time>
      </trkpt>
      <trkpt lat="45.1266" lon="5.91525">
        <ele>2119</ele>
        <time>2026-03-24T13:37:20Z</time>
      </trkpt>
      <trkpt lat="45.12654" lon="5.91488">
        <ele>2119</ele>
        <time>2026-03-24T13:37:55Z</time>
      </trkpt>
      <trkpt lat="45.12649" lon="5.91459">
        <ele>2121</ele>
        <time>2026-03-24T13:38:30Z</time>
      </trkpt>
      <trkpt lat="45.1264" lon="5.91429">
        <ele>2126</ele>
        <time>2026-03-24T13:39:42Z</time>
      </trkpt>
      <trkpt lat="45.12623" lon="5.91401">
        <ele>2133</ele>
        <time>2026-03-24T13:40:29Z</time>
      </trkpt>
      <trkpt lat="45.12615" lon="5.91389">
        <ele>2134</ele>
        <time>2026-03-24T13:40:45Z</time>
      </trkpt>
      <trkpt lat="45.12608" lon="5.91359">
        <ele>2136</ele>
        <time>2026-03-24T13:41:16Z</time>
      </trkpt>
      <trkpt lat="45.12599" lon="5.91333">
        <ele>2140</ele>
        <time>2026-03-24T13:41:51Z</time>
      </trkpt>
      <trkpt lat="45.12591" lon="5.91315">
        <ele>2143</ele>
        <time>2026-03-24T13:42:15Z</time>
      </trkpt>
      <trkpt lat="45.12575" lon="5.91288">
        <ele>2147</ele>
        <time>2026-03-24T13:42:57Z</time>
      </trkpt>
      <trkpt lat="45.12562" lon="5.91266">
        <ele>2151</ele>
        <time>2026-03-24T13:43:33Z</time>
      </trkpt>
      <trkpt lat="45.12551" lon="5.91247">
        <ele>2154</ele>
        <time>2026-03-24T13:44:02Z</time>
      </trkpt>
      <trkpt lat="45.12545" lon="5.91241">
        <ele>2155</ele>
        <time>2026-03-24T13:44:14Z</time>
      </trkpt>
      <trkpt lat="45.12529" lon="5.91216">
        <ele>2160</ele>
        <time>2026-03-24T13:44:56Z</time>
      </trkpt>
      <trkpt lat="45.12509" lon="5.91197">
        <ele>2165</ele>
        <time>2026-03-24T13:45:38Z</time>
      </trkpt>
      <trkpt lat="45.12505" lon="5.91185">
        <ele>2167</ele>
        <time>2026-03-24T13:45:56Z</time>
      </trkpt>
      <trkpt lat="45.12514" lon="5.91178">
        <ele>2168</ele>
        <time>2026-03-24T13:46:49Z</time>
      </trkpt>
      <trkpt lat="45.12522" lon="5.9117">
        <ele>2168</ele>
        <time>2026-03-24T13:47:02Z</time>
      </trkpt>
      <trkpt lat="45.12528" lon="5.91158">
        <ele>2168</ele>
        <time>2026-03-24T13:47:15Z</time>
      </trkpt>
      <trkpt lat="45.12531" lon="5.91147">
        <ele>2169</ele>
        <time>2026-03-24T13:47:27Z</time>
      </trkpt>
      <trkpt lat="45.12536" lon="5.91137">
        <ele>2170</ele>
        <time>2026-03-24T13:47:39Z</time>
      </trkpt>
      <trkpt lat="45.12538" lon="5.91127">
        <ele>2171</ele>
        <time>2026-03-24T13:47:51Z</time>
      </trkpt>
      <trkpt lat="45.12544" lon="5.91117">
        <ele>2173</ele>
        <time>2026-03-24T13:48:04Z</time>
      </trkpt>
      <trkpt lat="45.12557" lon="5.91083">
        <ele>2176</ele>
        <time>2026-03-24T13:48:46Z</time>
      </trkpt>
      <trkpt lat="45.12566" lon="5.91064">
        <ele>2177</ele>
        <time>2026-03-24T13:49:11Z</time>
      </trkpt>
      <trkpt lat="45.12581" lon="5.91029">
        <ele>2177</ele>
        <time>2026-03-24T13:49:48Z</time>
      </trkpt>
      <trkpt lat="45.12593" lon="5.90985">
        <ele>2176</ele>
        <time>2026-03-24T13:50:26Z</time>
      </trkpt>
      <trkpt lat="45.12594" lon="5.90945">
        <ele>2176</ele>
        <time>2026-03-24T13:50:57Z</time>
      </trkpt>
      <trkpt lat="45.12595" lon="5.90937">
        <ele>2176</ele>
        <time>2026-03-24T13:51:06Z</time>
      </trkpt>
      <trkpt lat="45.12595" lon="5.90928">
        <ele>2177</ele>
        <time>2026-03-24T13:51:30Z</time>
      </trkpt>
      <trkpt lat="45.12594" lon="5.90917">
        <ele>2178</ele>
        <time>2026-03-24T13:51:42Z</time>
      </trkpt>
      <trkpt lat="45.12595" lon="5.90897">
        <ele>2181</ele>
        <time>2026-03-24T13:52:06Z</time>
      </trkpt>
      <trkpt lat="45.12594" lon="5.90888">
        <ele>2182</ele>
        <time>2026-03-24T13:52:17Z</time>
      </trkpt>
      <trkpt lat="45.12593" lon="5.90866">
        <ele>2186</ele>
        <time>2026-03-24T13:52:47Z</time>
      </trkpt>
      <trkpt lat="45.12591" lon="5.90855">
        <ele>2188</ele>
        <time>2026-03-24T13:53:05Z</time>
      </trkpt>
      <trkpt lat="45.12589" lon="5.90844">
        <ele>2191</ele>
        <time>2026-03-24T13:53:23Z</time>
      </trkpt>
      <trkpt lat="45.12589" lon="5.90832">
        <ele>2194</ele>
        <time>2026-03-24T13:53:41Z</time>
      </trkpt>
      <trkpt lat="45.12597" lon="5.90823">
        <ele>2196</ele>
        <time>2026-03-24T13:54:05Z</time>
      </trkpt>
      <trkpt lat="45.12599" lon="5.9081">
        <ele>2198</ele>
        <time>2026-03-24T13:54:22Z</time>
      </trkpt>
      <trkpt lat="45.12599" lon="5.90798">
        <ele>2200</ele>
        <time>2026-03-24T13:54:40Z</time>
      </trkpt>
      <trkpt lat="45.12606" lon="5.90773">
        <ele>2204</ele>
        <time>2026-03-24T13:55:53Z</time>
      </trkpt>
      <trkpt lat="45.12611" lon="5.90758">
        <ele>2205</ele>
        <time>2026-03-24T13:56:11Z</time>
      </trkpt>
      <trkpt lat="45.12614" lon="5.90748">
        <ele>2206</ele>
        <time>2026-03-24T13:56:23Z</time>
      </trkpt>
      <trkpt lat="45.12617" lon="5.90732">
        <ele>2208</ele>
        <time>2026-03-24T13:57:04Z</time>
      </trkpt>
      <trkpt lat="45.12621" lon="5.9071">
        <ele>2212</ele>
        <time>2026-03-24T13:57:35Z</time>
      </trkpt>
      <trkpt lat="45.12622" lon="5.90685">
        <ele>2217</ele>
        <time>2026-03-24T13:58:11Z</time>
      </trkpt>
      <trkpt lat="45.12624" lon="5.90654">
        <ele>2221</ele>
        <time>2026-03-24T13:58:46Z</time>
      </trkpt>
      <trkpt lat="45.12626" lon="5.90644">
        <ele>2221</ele>
        <time>2026-03-24T13:58:58Z</time>
      </trkpt>
      <trkpt lat="45.12631" lon="5.90636">
        <ele>2222</ele>
        <time>2026-03-24T13:59:10Z</time>
      </trkpt>
      <trkpt lat="45.12636" lon="5.90628">
        <ele>2223</ele>
        <time>2026-03-24T13:59:23Z</time>
      </trkpt>
      <trkpt lat="45.12636" lon="5.90618">
        <ele>2225</ele>
        <time>2026-03-24T13:59:35Z</time>
      </trkpt>
      <trkpt lat="45.12633" lon="5.90606">
        <ele>2227</ele>
        <time>2026-03-24T13:59:53Z</time>
      </trkpt>
      <trkpt lat="45.12629" lon="5.90582">
        <ele>2232</ele>
        <time>2026-03-24T14:00:40Z</time>
      </trkpt>
      <trkpt lat="45.12625" lon="5.90569">
        <ele>2234</ele>
        <time>2026-03-24T14:00:58Z</time>
      </trkpt>
      <trkpt lat="45.12622" lon="5.90559">
        <ele>2235</ele>
        <time>2026-03-24T14:01:10Z</time>
      </trkpt>
      <trkpt lat="45.12618" lon="5.90545">
        <ele>2237</ele>
        <time>2026-03-24T14:01:41Z</time>
      </trkpt>
      <trkpt lat="45.12614" lon="5.90535">
        <ele>2238</ele>
        <time>2026-03-24T14:01:53Z</time>
      </trkpt>
      <trkpt lat="45.12611" lon="5.90512">
        <ele>2240</ele>
        <time>2026-03-24T14:02:17Z</time>
      </trkpt>
      <trkpt lat="45.12614" lon="5.90478">
        <ele>2242</ele>
        <time>2026-03-24T14:02:52Z</time>
      </trkpt>
      <trkpt lat="45.12616" lon="5.90455">
        <ele>2244</ele>
        <time>2026-03-24T14:03:17Z</time>
      </trkpt>
      <trkpt lat="45.12615" lon="5.90424">
        <ele>2247</ele>
        <time>2026-03-24T14:03:53Z</time>
      </trkpt>
      <trkpt lat="45.12611" lon="5.90398">
        <ele>2247</ele>
        <time>2026-03-24T14:04:18Z</time>
      </trkpt>
      <trkpt lat="45.12605" lon="5.90386">
        <ele>2247</ele>
        <time>2026-03-24T14:04:30Z</time>
      </trkpt>
      <trkpt lat="45.12593" lon="5.90345">
        <ele>2247</ele>
        <time>2026-03-24T14:05:08Z</time>
      </trkpt>
      <trkpt lat="45.12589" lon="5.90334">
        <ele>2247</ele>
        <time>2026-03-24T14:05:20Z</time>
      </trkpt>
      <trkpt lat="45.12576" lon="5.90337">
        <ele>2247</ele>
        <time>2026-03-24T14:14:56Z</time>
      </trkpt>
      <trkpt lat="45.12569" lon="5.90341">
        <ele>2247</ele>
        <time>2026-03-24T14:15:00Z</time>
      </trkpt>
      <trkpt lat="45.12561" lon="5.90336">
        <ele>2246</ele>
        <time>2026-03-24T14:15:04Z</time>
      </trkpt>
      <trkpt lat="45.12549" lon="5.90334">
        <ele>2245</ele>
        <time>2026-03-24T14:15:07Z</time>
      </trkpt>
      <trkpt lat="45.12541" lon="5.90329">
        <ele>2244</ele>
        <time>2026-03-24T14:15:09Z</time>
      </trkpt>
      <trkpt lat="45.12534" lon="5.90324">
        <ele>2243</ele>
        <time>2026-03-24T14:15:11Z</time>
      </trkpt>
      <trkpt lat="45.12527" lon="5.90314">
        <ele>2242</ele>
        <time>2026-03-24T14:15:13Z</time>
      </trkpt>
      <trkpt lat="45.1252" lon="5.903">
        <ele>2241</ele>
        <time>2026-03-24T14:15:15Z</time>
      </trkpt>
      <trkpt lat="45.1249" lon="5.90255">
        <ele>2233</ele>
        <time>2026-03-24T14:15:22Z</time>
      </trkpt>
      <trkpt lat="45.12496" lon="5.90245">
        <ele>2229</ele>
        <time>2026-03-24T14:15:44Z</time>
      </trkpt>
      <trkpt lat="45.12494" lon="5.90234">
        <ele>2229</ele>
        <time>2026-03-24T14:16:00Z</time>
      </trkpt>
      <trkpt lat="45.12494" lon="5.90224">
        <ele>2228</ele>
        <time>2026-03-24T14:16:02Z</time>
      </trkpt>
      <trkpt lat="45.12498" lon="5.90209">
        <ele>2228</ele>
        <time>2026-03-24T14:16:05Z</time>
      </trkpt>
      <trkpt lat="45.12495" lon="5.90198">
        <ele>2227</ele>
        <time>2026-03-24T14:16:07Z</time>
      </trkpt>
      <trkpt lat="45.12497" lon="5.90187">
        <ele>2226</ele>
        <time>2026-03-24T14:16:09Z</time>
      </trkpt>
      <trkpt lat="45.12502" lon="5.90178">
        <ele>2224</ele>
        <time>2026-03-24T14:16:12Z</time>
      </trkpt>
      <trkpt lat="45.125" lon="5.90165">
        <ele>2223</ele>
        <time>2026-03-24T14:16:14Z</time>
      </trkpt>
      <trkpt lat="45.12496" lon="5.90152">
        <ele>2221</ele>
        <time>2026-03-24T14:16:16Z</time>
      </trkpt>
      <trkpt lat="45.12494" lon="5.9012">
        <ele>2216</ele>
        <time>2026-03-24T14:16:20Z</time>
      </trkpt>
      <trkpt lat="45.12489" lon="5.90106">
        <ele>2214</ele>
        <time>2026-03-24T14:16:22Z</time>
      </trkpt>
      <trkpt lat="45.12494" lon="5.90092">
        <ele>2211</ele>
        <time>2026-03-24T14:16:24Z</time>
      </trkpt>
      <trkpt lat="45.12499" lon="5.9008">
        <ele>2207</ele>
        <time>2026-03-24T14:16:26Z</time>
      </trkpt>
      <trkpt lat="45.12499" lon="5.90065">
        <ele>2204</ele>
        <time>2026-03-24T14:16:28Z</time>
      </trkpt>
      <trkpt lat="45.12503" lon="5.90053">
        <ele>2201</ele>
        <time>2026-03-24T14:16:30Z</time>
      </trkpt>
      <trkpt lat="45.12507" lon="5.90038">
        <ele>2198</ele>
        <time>2026-03-24T14:16:32Z</time>
      </trkpt>
      <trkpt lat="45.12507" lon="5.90023">
        <ele>2194</ele>
        <time>2026-03-24T14:16:34Z</time>
      </trkpt>
      <trkpt lat="45.12513" lon="5.90008">
        <ele>2190</ele>
        <time>2026-03-24T14:16:36Z</time>
      </trkpt>
      <trkpt lat="45.12512" lon="5.89991">
        <ele>2188</ele>
        <time>2026-03-24T14:16:38Z</time>
      </trkpt>
      <trkpt lat="45.12517" lon="5.89977">
        <ele>2184</ele>
        <time>2026-03-24T14:16:40Z</time>
      </trkpt>
      <trkpt lat="45.12507" lon="5.89962">
        <ele>2180</ele>
        <time>2026-03-24T14:16:42Z</time>
      </trkpt>
      <trkpt lat="45.12516" lon="5.8995">
        <ele>2176</ele>
        <time>2026-03-24T14:16:44Z</time>
      </trkpt>
      <trkpt lat="45.12512" lon="5.89942">
        <ele>2171</ele>
        <time>2026-03-24T14:16:46Z</time>
      </trkpt>
      <trkpt lat="45.12511" lon="5.89933">
        <ele>2165</ele>
        <time>2026-03-24T14:17:38Z</time>
      </trkpt>
      <trkpt lat="45.12514" lon="5.89908">
        <ele>2162</ele>
        <time>2026-03-24T14:17:42Z</time>
      </trkpt>
      <trkpt lat="45.12513" lon="5.89895">
        <ele>2161</ele>
        <time>2026-03-24T14:17:44Z</time>
      </trkpt>
      <trkpt lat="45.12507" lon="5.89893">
        <ele>2160</ele>
        <time>2026-03-24T14:17:45Z</time>
      </trkpt>
      <trkpt lat="45.12508" lon="5.89879">
        <ele>2156</ele>
        <time>2026-03-24T14:17:47Z</time>
      </trkpt>
      <trkpt lat="45.12501" lon="5.89872">
        <ele>2153</ele>
        <time>2026-03-24T14:17:49Z</time>
      </trkpt>
      <trkpt lat="45.12495" lon="5.89865">
        <ele>2148</ele>
        <time>2026-03-24T14:17:51Z</time>
      </trkpt>
      <trkpt lat="45.12501" lon="5.89853">
        <ele>2145</ele>
        <time>2026-03-24T14:17:53Z</time>
      </trkpt>
      <trkpt lat="45.12495" lon="5.89849">
        <ele>2141</ele>
        <time>2026-03-24T14:17:55Z</time>
      </trkpt>
      <trkpt lat="45.12488" lon="5.8985">
        <ele>2138</ele>
        <time>2026-03-24T14:17:57Z</time>
      </trkpt>
      <trkpt lat="45.12495" lon="5.89838">
        <ele>2134</ele>
        <time>2026-03-24T14:18:55Z</time>
      </trkpt>
      <trkpt lat="45.12486" lon="5.89829">
        <ele>2133</ele>
        <time>2026-03-24T14:18:58Z</time>
      </trkpt>
      <trkpt lat="45.12485" lon="5.89816">
        <ele>2132</ele>
        <time>2026-03-24T14:19:00Z</time>
      </trkpt>
      <trkpt lat="45.12475" lon="5.89811">
        <ele>2128</ele>
        <time>2026-03-24T14:19:02Z</time>
      </trkpt>
      <trkpt lat="45.12471" lon="5.89798">
        <ele>2124</ele>
        <time>2026-03-24T14:19:04Z</time>
      </trkpt>
      <trkpt lat="45.12467" lon="5.89784">
        <ele>2119</ele>
        <time>2026-03-24T14:19:06Z</time>
      </trkpt>
      <trkpt lat="45.12457" lon="5.89774">
        <ele>2116</ele>
        <time>2026-03-24T14:19:08Z</time>
      </trkpt>
      <trkpt lat="45.1246" lon="5.89756">
        <ele>2110</ele>
        <time>2026-03-24T14:19:10Z</time>
      </trkpt>
      <trkpt lat="45.12455" lon="5.89748">
        <ele>2107</ele>
        <time>2026-03-24T14:19:11Z</time>
      </trkpt>
      <trkpt lat="45.1246" lon="5.89736">
        <ele>2101</ele>
        <time>2026-03-24T14:19:13Z</time>
      </trkpt>
      <trkpt lat="45.12459" lon="5.89724">
        <ele>2095</ele>
        <time>2026-03-24T14:19:15Z</time>
      </trkpt>
      <trkpt lat="45.12452" lon="5.89723">
        <ele>2088</ele>
        <time>2026-03-24T14:19:18Z</time>
      </trkpt>
      <trkpt lat="45.12452" lon="5.89712">
        <ele>2085</ele>
        <time>2026-03-24T14:19:21Z</time>
      </trkpt>
      <trkpt lat="45.12459" lon="5.89712">
        <ele>2082</ele>
        <time>2026-03-24T14:19:29Z</time>
      </trkpt>
      <trkpt lat="45.12466" lon="5.89715">
        <ele>2081</ele>
        <time>2026-03-24T14:19:31Z</time>
      </trkpt>
      <trkpt lat="45.12472" lon="5.89712">
        <ele>2080</ele>
        <time>2026-03-24T14:19:40Z</time>
      </trkpt>
      <trkpt lat="45.12479" lon="5.89702">
        <ele>2080</ele>
        <time>2026-03-24T14:19:42Z</time>
      </trkpt>
      <trkpt lat="45.12485" lon="5.89696">
        <ele>2078</ele>
        <time>2026-03-24T14:19:44Z</time>
      </trkpt>
      <trkpt lat="45.12487" lon="5.89687">
        <ele>2077</ele>
        <time>2026-03-24T14:19:45Z</time>
      </trkpt>
      <trkpt lat="45.12493" lon="5.89684">
        <ele>2075</ele>
        <time>2026-03-24T14:19:46Z</time>
      </trkpt>
      <trkpt lat="45.12494" lon="5.89667">
        <ele>2071</ele>
        <time>2026-03-24T14:19:48Z</time>
      </trkpt>
      <trkpt lat="45.12507" lon="5.89661">
        <ele>2065</ele>
        <time>2026-03-24T14:19:50Z</time>
      </trkpt>
      <trkpt lat="45.12514" lon="5.89648">
        <ele>2060</ele>
        <time>2026-03-24T14:19:52Z</time>
      </trkpt>
      <trkpt lat="45.12521" lon="5.89634">
        <ele>2053</ele>
        <time>2026-03-24T14:19:54Z</time>
      </trkpt>
      <trkpt lat="45.12524" lon="5.89614">
        <ele>2048</ele>
        <time>2026-03-24T14:19:56Z</time>
      </trkpt>
      <trkpt lat="45.12537" lon="5.89602">
        <ele>2044</ele>
        <time>2026-03-24T14:19:58Z</time>
      </trkpt>
      <trkpt lat="45.1254" lon="5.89579">
        <ele>2038</ele>
        <time>2026-03-24T14:20:00Z</time>
      </trkpt>
      <trkpt lat="45.12549" lon="5.89579">
        <ele>2035</ele>
        <time>2026-03-24T14:20:01Z</time>
      </trkpt>
      <trkpt lat="45.12556" lon="5.89583">
        <ele>2031</ele>
        <time>2026-03-24T14:20:02Z</time>
      </trkpt>
      <trkpt lat="45.12562" lon="5.89579">
        <ele>2028</ele>
        <time>2026-03-24T14:20:03Z</time>
      </trkpt>
      <trkpt lat="45.12578" lon="5.89582">
        <ele>2022</ele>
        <time>2026-03-24T14:20:05Z</time>
      </trkpt>
      <trkpt lat="45.12598" lon="5.8958">
        <ele>2017</ele>
        <time>2026-03-24T14:20:07Z</time>
      </trkpt>
      <trkpt lat="45.12626" lon="5.89599">
        <ele>2006</ele>
        <time>2026-03-24T14:20:10Z</time>
      </trkpt>
      <trkpt lat="45.12635" lon="5.89597">
        <ele>2003</ele>
        <time>2026-03-24T14:20:11Z</time>
      </trkpt>
      <trkpt lat="45.12636" lon="5.89581">
        <ele>1998</ele>
        <time>2026-03-24T14:20:13Z</time>
      </trkpt>
      <trkpt lat="45.12632" lon="5.89567">
        <ele>1990</ele>
        <time>2026-03-24T14:20:47Z</time>
      </trkpt>
      <trkpt lat="45.12632" lon="5.8955">
        <ele>1990</ele>
        <time>2026-03-24T14:20:49Z</time>
      </trkpt>
      <trkpt lat="45.12638" lon="5.89535">
        <ele>1988</ele>
        <time>2026-03-24T14:20:51Z</time>
      </trkpt>
      <trkpt lat="45.12642" lon="5.89518">
        <ele>1985</ele>
        <time>2026-03-24T14:20:53Z</time>
      </trkpt>
      <trkpt lat="45.12639" lon="5.89508">
        <ele>1983</ele>
        <time>2026-03-24T14:20:54Z</time>
      </trkpt>
      <trkpt lat="45.12641" lon="5.89497">
        <ele>1981</ele>
        <time>2026-03-24T14:20:55Z</time>
      </trkpt>
      <trkpt lat="45.12651" lon="5.89482">
        <ele>1977</ele>
        <time>2026-03-24T14:20:57Z</time>
      </trkpt>
      <trkpt lat="45.12647" lon="5.89461">
        <ele>1972</ele>
        <time>2026-03-24T14:20:59Z</time>
      </trkpt>
      <trkpt lat="45.12654" lon="5.89447">
        <ele>1968</ele>
        <time>2026-03-24T14:21:01Z</time>
      </trkpt>
      <trkpt lat="45.12655" lon="5.89429">
        <ele>1960</ele>
        <time>2026-03-24T14:21:23Z</time>
      </trkpt>
      <trkpt lat="45.12656" lon="5.89411">
        <ele>1959</ele>
        <time>2026-03-24T14:21:26Z</time>
      </trkpt>
      <trkpt lat="45.12664" lon="5.89403">
        <ele>1956</ele>
        <time>2026-03-24T14:21:28Z</time>
      </trkpt>
      <trkpt lat="45.12661" lon="5.89388">
        <ele>1953</ele>
        <time>2026-03-24T14:21:30Z</time>
      </trkpt>
      <trkpt lat="45.12658" lon="5.89372">
        <ele>1948</ele>
        <time>2026-03-24T14:21:32Z</time>
      </trkpt>
      <trkpt lat="45.12672" lon="5.8936">
        <ele>1943</ele>
        <time>2026-03-24T14:21:34Z</time>
      </trkpt>
      <trkpt lat="45.12665" lon="5.89327">
        <ele>1934</ele>
        <time>2026-03-24T14:21:37Z</time>
      </trkpt>
      <trkpt lat="45.12672" lon="5.89318">
        <ele>1934</ele>
        <time>2026-03-24T14:21:38Z</time>
      </trkpt>
      <trkpt lat="45.12684" lon="5.89295">
        <ele>1928</ele>
        <time>2026-03-24T14:21:39Z</time>
      </trkpt>
      <trkpt lat="45.12688" lon="5.89253">
        <ele>1919</ele>
        <time>2026-03-24T14:21:42Z</time>
      </trkpt>
      <trkpt lat="45.1269" lon="5.8923">
        <ele>1915</ele>
        <time>2026-03-24T14:21:44Z</time>
      </trkpt>
      <trkpt lat="45.12694" lon="5.89222">
        <ele>1913</ele>
        <time>2026-03-24T14:21:45Z</time>
      </trkpt>
      <trkpt lat="45.12688" lon="5.89207">
        <ele>1911</ele>
        <time>2026-03-24T14:21:47Z</time>
      </trkpt>
      <trkpt lat="45.12694" lon="5.89194">
        <ele>1907</ele>
        <time>2026-03-24T14:21:49Z</time>
      </trkpt>
      <trkpt lat="45.12699" lon="5.89188">
        <ele>1905</ele>
        <time>2026-03-24T14:21:50Z</time>
      </trkpt>
      <trkpt lat="45.12695" lon="5.89169">
        <ele>1900</ele>
        <time>2026-03-24T14:21:52Z</time>
      </trkpt>
      <trkpt lat="45.12699" lon="5.89162">
        <ele>1897</ele>
        <time>2026-03-24T14:21:53Z</time>
      </trkpt>
      <trkpt lat="45.12706" lon="5.89157">
        <ele>1897</ele>
        <time>2026-03-24T14:21:54Z</time>
      </trkpt>
      <trkpt lat="45.12707" lon="5.89148">
        <ele>1894</ele>
        <time>2026-03-24T14:21:55Z</time>
      </trkpt>
      <trkpt lat="45.12703" lon="5.89137">
        <ele>1892</ele>
        <time>2026-03-24T14:21:56Z</time>
      </trkpt>
      <trkpt lat="45.12703" lon="5.89125">
        <ele>1889</ele>
        <time>2026-03-24T14:21:57Z</time>
      </trkpt>
      <trkpt lat="45.12708" lon="5.89118">
        <ele>1886</ele>
        <time>2026-03-24T14:21:58Z</time>
      </trkpt>
      <trkpt lat="45.12716" lon="5.89112">
        <ele>1882</ele>
        <time>2026-03-24T14:21:59Z</time>
      </trkpt>
      <trkpt lat="45.12718" lon="5.89098">
        <ele>1880</ele>
        <time>2026-03-24T14:22:00Z</time>
      </trkpt>
      <trkpt lat="45.12715" lon="5.89056">
        <ele>1870</ele>
        <time>2026-03-24T14:22:03Z</time>
      </trkpt>
      <trkpt lat="45.12726" lon="5.8904">
        <ele>1864</ele>
        <time>2026-03-24T14:22:05Z</time>
      </trkpt>
      <trkpt lat="45.12727" lon="5.89031">
        <ele>1862</ele>
        <time>2026-03-24T14:22:06Z</time>
      </trkpt>
      <trkpt lat="45.12723" lon="5.89012">
        <ele>1858</ele>
        <time>2026-03-24T14:22:08Z</time>
      </trkpt>
      <trkpt lat="45.12726" lon="5.89003">
        <ele>1856</ele>
        <time>2026-03-24T14:22:09Z</time>
      </trkpt>
      <trkpt lat="45.12724" lon="5.88993">
        <ele>1854</ele>
        <time>2026-03-24T14:22:10Z</time>
      </trkpt>
      <trkpt lat="45.1272" lon="5.88983">
        <ele>1854</ele>
        <time>2026-03-24T14:22:11Z</time>
      </trkpt>
      <trkpt lat="45.12719" lon="5.88973">
        <ele>1852</ele>
        <time>2026-03-24T14:22:12Z</time>
      </trkpt>
      <trkpt lat="45.12725" lon="5.88974">
        <ele>1843</ele>
        <time>2026-03-24T14:22:17Z</time>
      </trkpt>
      <trkpt lat="45.12741" lon="5.88957">
        <ele>1840</ele>
        <time>2026-03-24T14:22:38Z</time>
      </trkpt>
      <trkpt lat="45.12742" lon="5.88943">
        <ele>1839</ele>
        <time>2026-03-24T14:22:40Z</time>
      </trkpt>
      <trkpt lat="45.12754" lon="5.88943">
        <ele>1837</ele>
        <time>2026-03-24T14:22:42Z</time>
      </trkpt>
      <trkpt lat="45.12757" lon="5.88926">
        <ele>1834</ele>
        <time>2026-03-24T14:22:44Z</time>
      </trkpt>
      <trkpt lat="45.1277" lon="5.88927">
        <ele>1832</ele>
        <time>2026-03-24T14:22:46Z</time>
      </trkpt>
      <trkpt lat="45.12781" lon="5.88905">
        <ele>1828</ele>
        <time>2026-03-24T14:22:49Z</time>
      </trkpt>
      <trkpt lat="45.12795" lon="5.88909">
        <ele>1825</ele>
        <time>2026-03-24T14:22:51Z</time>
      </trkpt>
      <trkpt lat="45.12801" lon="5.88903">
        <ele>1823</ele>
        <time>2026-03-24T14:22:52Z</time>
      </trkpt>
      <trkpt lat="45.12809" lon="5.88884">
        <ele>1820</ele>
        <time>2026-03-24T14:22:54Z</time>
      </trkpt>
      <trkpt lat="45.12841" lon="5.889">
        <ele>1811</ele>
        <time>2026-03-24T14:22:59Z</time>
      </trkpt>
      <trkpt lat="45.12852" lon="5.88891">
        <ele>1807</ele>
        <time>2026-03-24T14:23:01Z</time>
      </trkpt>
      <trkpt lat="45.12859" lon="5.88896">
        <ele>1807</ele>
        <time>2026-03-24T14:23:02Z</time>
      </trkpt>
      <trkpt lat="45.12865" lon="5.88893">
        <ele>1805</ele>
        <time>2026-03-24T14:23:03Z</time>
      </trkpt>
      <trkpt lat="45.12871" lon="5.88887">
        <ele>1803</ele>
        <time>2026-03-24T14:23:04Z</time>
      </trkpt>
      <trkpt lat="45.12885" lon="5.88892">
        <ele>1799</ele>
        <time>2026-03-24T14:23:06Z</time>
      </trkpt>
      <trkpt lat="45.12897" lon="5.88875">
        <ele>1794</ele>
        <time>2026-03-24T14:23:08Z</time>
      </trkpt>
      <trkpt lat="45.12914" lon="5.88881">
        <ele>1790</ele>
        <time>2026-03-24T14:23:10Z</time>
      </trkpt>
      <trkpt lat="45.12927" lon="5.88865">
        <ele>1785</ele>
        <time>2026-03-24T14:23:12Z</time>
      </trkpt>
      <trkpt lat="45.12942" lon="5.88871">
        <ele>1780</ele>
        <time>2026-03-24T14:23:14Z</time>
      </trkpt>
      <trkpt lat="45.12973" lon="5.88858">
        <ele>1770</ele>
        <time>2026-03-24T14:23:18Z</time>
      </trkpt>
      <trkpt lat="45.12981" lon="5.88851">
        <ele>1770</ele>
        <time>2026-03-24T14:23:19Z</time>
      </trkpt>
      <trkpt lat="45.12989" lon="5.88846">
        <ele>1767</ele>
        <time>2026-03-24T14:23:20Z</time>
      </trkpt>
      <trkpt lat="45.13004" lon="5.88853">
        <ele>1763</ele>
        <time>2026-03-24T14:23:22Z</time>
      </trkpt>
      <trkpt lat="45.13029" lon="5.88845">
        <ele>1758</ele>
        <time>2026-03-24T14:23:25Z</time>
      </trkpt>
      <trkpt lat="45.13041" lon="5.88854">
        <ele>1754</ele>
        <time>2026-03-24T14:23:27Z</time>
      </trkpt>
      <trkpt lat="45.13048" lon="5.8885">
        <ele>1752</ele>
        <time>2026-03-24T14:23:28Z</time>
      </trkpt>
      <trkpt lat="45.1306" lon="5.88856">
        <ele>1748</ele>
        <time>2026-03-24T14:23:30Z</time>
      </trkpt>
      <trkpt lat="45.13073" lon="5.8885">
        <ele>1745</ele>
        <time>2026-03-24T14:23:32Z</time>
      </trkpt>
      <trkpt lat="45.13086" lon="5.8886">
        <ele>1741</ele>
        <time>2026-03-24T14:23:34Z</time>
      </trkpt>
      <trkpt lat="45.13094" lon="5.88853">
        <ele>1739</ele>
        <time>2026-03-24T14:23:35Z</time>
      </trkpt>
      <trkpt lat="45.13104" lon="5.88852">
        <ele>1739</ele>
        <time>2026-03-24T14:23:36Z</time>
      </trkpt>
      <trkpt lat="45.13119" lon="5.88866">
        <ele>1734</ele>
        <time>2026-03-24T14:23:38Z</time>
      </trkpt>
      <trkpt lat="45.13136" lon="5.88856">
        <ele>1728</ele>
        <time>2026-03-24T14:23:40Z</time>
      </trkpt>
      <trkpt lat="45.1314" lon="5.88863">
        <ele>1723</ele>
        <time>2026-03-24T14:23:42Z</time>
      </trkpt>
      <trkpt lat="45.13157" lon="5.88864">
        <ele>1716</ele>
        <time>2026-03-24T14:24:30Z</time>
      </trkpt>
      <trkpt lat="45.13182" lon="5.88874">
        <ele>1713</ele>
        <time>2026-03-24T14:24:33Z</time>
      </trkpt>
      <trkpt lat="45.13203" lon="5.88899">
        <ele>1709</ele>
        <time>2026-03-24T14:24:37Z</time>
      </trkpt>
      <trkpt lat="45.13227" lon="5.88942">
        <ele>1703</ele>
        <time>2026-03-24T14:24:42Z</time>
      </trkpt>
      <trkpt lat="45.1324" lon="5.88949">
        <ele>1702</ele>
        <time>2026-03-24T14:24:44Z</time>
      </trkpt>
      <trkpt lat="45.1329" lon="5.88999">
        <ele>1689</ele>
        <time>2026-03-24T14:24:55Z</time>
      </trkpt>
      <trkpt lat="45.13297" lon="5.89016">
        <ele>1686</ele>
        <time>2026-03-24T14:24:57Z</time>
      </trkpt>
      <trkpt lat="45.13303" lon="5.89016">
        <ele>1684</ele>
        <time>2026-03-24T14:24:58Z</time>
      </trkpt>
      <trkpt lat="45.13311" lon="5.89015">
        <ele>1684</ele>
        <time>2026-03-24T14:24:59Z</time>
      </trkpt>
      <trkpt lat="45.13316" lon="5.89022">
        <ele>1682</ele>
        <time>2026-03-24T14:25:00Z</time>
      </trkpt>
      <trkpt lat="45.13327" lon="5.89019">
        <ele>1677</ele>
        <time>2026-03-24T14:25:02Z</time>
      </trkpt>
      <trkpt lat="45.13335" lon="5.89003">
        <ele>1673</ele>
        <time>2026-03-24T14:25:04Z</time>
      </trkpt>
      <trkpt lat="45.13336" lon="5.88985">
        <ele>1669</ele>
        <time>2026-03-24T14:25:06Z</time>
      </trkpt>
      <trkpt lat="45.13331" lon="5.88976">
        <ele>1666</ele>
        <time>2026-03-24T14:25:07Z</time>
      </trkpt>
      <trkpt lat="45.13339" lon="5.88961">
        <ele>1662</ele>
        <time>2026-03-24T14:25:09Z</time>
      </trkpt>
      <trkpt lat="45.13331" lon="5.88944">
        <ele>1657</ele>
        <time>2026-03-24T14:25:11Z</time>
      </trkpt>
      <trkpt lat="45.13335" lon="5.8893">
        <ele>1652</ele>
        <time>2026-03-24T14:25:13Z</time>
      </trkpt>
      <trkpt lat="45.13331" lon="5.88914">
        <ele>1648</ele>
        <time>2026-03-24T14:25:15Z</time>
      </trkpt>
      <trkpt lat="45.13335" lon="5.88896">
        <ele>1646</ele>
        <time>2026-03-24T14:25:17Z</time>
      </trkpt>
      <trkpt lat="45.13333" lon="5.88878">
        <ele>1642</ele>
        <time>2026-03-24T14:25:19Z</time>
      </trkpt>
      <trkpt lat="45.13337" lon="5.88862">
        <ele>1638</ele>
        <time>2026-03-24T14:25:21Z</time>
      </trkpt>
      <trkpt lat="45.13331" lon="5.88855">
        <ele>1636</ele>
        <time>2026-03-24T14:25:22Z</time>
      </trkpt>
      <trkpt lat="45.13333" lon="5.88825">
        <ele>1629</ele>
        <time>2026-03-24T14:25:26Z</time>
      </trkpt>
      <trkpt lat="45.13337" lon="5.88816">
        <ele>1627</ele>
        <time>2026-03-24T14:25:27Z</time>
      </trkpt>
      <trkpt lat="45.13331" lon="5.888">
        <ele>1624</ele>
        <time>2026-03-24T14:25:29Z</time>
      </trkpt>
      <trkpt lat="45.13336" lon="5.88793">
        <ele>1621</ele>
        <time>2026-03-24T14:25:31Z</time>
      </trkpt>
      <trkpt lat="45.13338" lon="5.88799">
        <ele>1617</ele>
        <time>2026-03-24T14:25:48Z</time>
      </trkpt>
      <trkpt lat="45.13344" lon="5.88801">
        <ele>1617</ele>
        <time>2026-03-24T14:26:00Z</time>
      </trkpt>
      <trkpt lat="45.13352" lon="5.88789">
        <ele>1616</ele>
        <time>2026-03-24T14:26:02Z</time>
      </trkpt>
      <trkpt lat="45.13357" lon="5.88792">
        <ele>1615</ele>
        <time>2026-03-24T14:26:03Z</time>
      </trkpt>
      <trkpt lat="45.13362" lon="5.88788">
        <ele>1614</ele>
        <time>2026-03-24T14:26:04Z</time>
      </trkpt>
      <trkpt lat="45.13366" lon="5.88779">
        <ele>1613</ele>
        <time>2026-03-24T14:26:05Z</time>
      </trkpt>
      <trkpt lat="45.1337" lon="5.88773">
        <ele>1613</ele>
        <time>2026-03-24T14:26:06Z</time>
      </trkpt>
      <trkpt lat="45.13379" lon="5.88782">
        <ele>1609</ele>
        <time>2026-03-24T14:26:08Z</time>
      </trkpt>
      <trkpt lat="45.13384" lon="5.88777">
        <ele>1607</ele>
        <time>2026-03-24T14:26:09Z</time>
      </trkpt>
      <trkpt lat="45.13387" lon="5.88768">
        <ele>1605</ele>
        <time>2026-03-24T14:26:10Z</time>
      </trkpt>
      <trkpt lat="45.13392" lon="5.88765">
        <ele>1603</ele>
        <time>2026-03-24T14:26:11Z</time>
      </trkpt>
      <trkpt lat="45.13402" lon="5.88773">
        <ele>1600</ele>
        <time>2026-03-24T14:26:13Z</time>
      </trkpt>
      <trkpt lat="45.13413" lon="5.88764">
        <ele>1596</ele>
        <time>2026-03-24T14:26:15Z</time>
      </trkpt>
      <trkpt lat="45.13418" lon="5.88771">
        <ele>1593</ele>
        <time>2026-03-24T14:26:16Z</time>
      </trkpt>
      <trkpt lat="45.13424" lon="5.88774">
        <ele>1591</ele>
        <time>2026-03-24T14:26:17Z</time>
      </trkpt>
      <trkpt lat="45.13429" lon="5.88768">
        <ele>1589</ele>
        <time>2026-03-24T14:26:18Z</time>
      </trkpt>
      <trkpt lat="45.13434" lon="5.88761">
        <ele>1586</ele>
        <time>2026-03-24T14:26:19Z</time>
      </trkpt>
      <trkpt lat="45.13439" lon="5.88766">
        <ele>1584</ele>
        <time>2026-03-24T14:26:20Z</time>
      </trkpt>
      <trkpt lat="45.13443" lon="5.88773">
        <ele>1582</ele>
        <time>2026-03-24T14:26:21Z</time>
      </trkpt>
      <trkpt lat="45.13462" lon="5.88766">
        <ele>1577</ele>
        <time>2026-03-24T14:26:24Z</time>
      </trkpt>
      <trkpt lat="45.13467" lon="5.88775">
        <ele>1574</ele>
        <time>2026-03-24T14:26:25Z</time>
      </trkpt>
      <trkpt lat="45.13474" lon="5.88778">
        <ele>1572</ele>
        <time>2026-03-24T14:26:26Z</time>
      </trkpt>
      <trkpt lat="45.13487" lon="5.8877">
        <ele>1567</ele>
        <time>2026-03-24T14:26:28Z</time>
      </trkpt>
      <trkpt lat="45.13498" lon="5.88782">
        <ele>1563</ele>
        <time>2026-03-24T14:26:30Z</time>
      </trkpt>
      <trkpt lat="45.13519" lon="5.88782">
        <ele>1556</ele>
        <time>2026-03-24T14:26:33Z</time>
      </trkpt>
      <trkpt lat="45.13526" lon="5.88787">
        <ele>1554</ele>
        <time>2026-03-24T14:26:34Z</time>
      </trkpt>
      <trkpt lat="45.1354" lon="5.8878">
        <ele>1550</ele>
        <time>2026-03-24T14:26:36Z</time>
      </trkpt>
      <trkpt lat="45.13552" lon="5.88789">
        <ele>1546</ele>
        <time>2026-03-24T14:26:38Z</time>
      </trkpt>
      <trkpt lat="45.13558" lon="5.88785">
        <ele>1546</ele>
        <time>2026-03-24T14:26:39Z</time>
      </trkpt>
      <trkpt lat="45.13565" lon="5.88781">
        <ele>1544</ele>
        <time>2026-03-24T14:26:41Z</time>
      </trkpt>
      <trkpt lat="45.13577" lon="5.88789">
        <ele>1540</ele>
        <time>2026-03-24T14:26:43Z</time>
      </trkpt>
      <trkpt lat="45.13592" lon="5.88784">
        <ele>1535</ele>
        <time>2026-03-24T14:26:45Z</time>
      </trkpt>
      <trkpt lat="45.13605" lon="5.88793">
        <ele>1531</ele>
        <time>2026-03-24T14:26:47Z</time>
      </trkpt>
      <trkpt lat="45.1362" lon="5.88786">
        <ele>1526</ele>
        <time>2026-03-24T14:26:49Z</time>
      </trkpt>
      <trkpt lat="45.13634" lon="5.88794">
        <ele>1522</ele>
        <time>2026-03-24T14:26:51Z</time>
      </trkpt>
      <trkpt lat="45.13649" lon="5.88791">
        <ele>1518</ele>
        <time>2026-03-24T14:26:53Z</time>
      </trkpt>
      <trkpt lat="45.13656" lon="5.88796">
        <ele>1516</ele>
        <time>2026-03-24T14:26:54Z</time>
      </trkpt>
      <trkpt lat="45.13671" lon="5.88795">
        <ele>1512</ele>
        <time>2026-03-24T14:26:56Z</time>
      </trkpt>
      <trkpt lat="45.13677" lon="5.88802">
        <ele>1512</ele>
        <time>2026-03-24T14:26:57Z</time>
      </trkpt>
      <trkpt lat="45.13684" lon="5.88805">
        <ele>1510</ele>
        <time>2026-03-24T14:26:58Z</time>
      </trkpt>
      <trkpt lat="45.13698" lon="5.88794">
        <ele>1505</ele>
        <time>2026-03-24T14:27:00Z</time>
      </trkpt>
      <trkpt lat="45.13705" lon="5.88796">
        <ele>1503</ele>
        <time>2026-03-24T14:27:01Z</time>
      </trkpt>
      <trkpt lat="45.1371" lon="5.88804">
        <ele>1501</ele>
        <time>2026-03-24T14:27:02Z</time>
      </trkpt>
      <trkpt lat="45.1372" lon="5.88807">
        <ele>1497</ele>
        <time>2026-03-24T14:27:04Z</time>
      </trkpt>
      <trkpt lat="45.13737" lon="5.88808">
        <ele>1489</ele>
        <time>2026-03-24T14:27:33Z</time>
      </trkpt>
      <trkpt lat="45.13752" lon="5.88806">
        <ele>1486</ele>
        <time>2026-03-24T14:27:36Z</time>
      </trkpt>
      <trkpt lat="45.13762" lon="5.88794">
        <ele>1483</ele>
        <time>2026-03-24T14:27:38Z</time>
      </trkpt>
      <trkpt lat="45.13773" lon="5.88801">
        <ele>1479</ele>
        <time>2026-03-24T14:27:40Z</time>
      </trkpt>
      <trkpt lat="45.13783" lon="5.88789">
        <ele>1474</ele>
        <time>2026-03-24T14:27:42Z</time>
      </trkpt>
      <trkpt lat="45.13794" lon="5.88787">
        <ele>1470</ele>
        <time>2026-03-24T14:27:44Z</time>
      </trkpt>
      <trkpt lat="45.13805" lon="5.88791">
        <ele>1465</ele>
        <time>2026-03-24T14:27:46Z</time>
      </trkpt>
      <trkpt lat="45.13818" lon="5.88783">
        <ele>1463</ele>
        <time>2026-03-24T14:27:48Z</time>
      </trkpt>
      <trkpt lat="45.13825" lon="5.88789">
        <ele>1461</ele>
        <time>2026-03-24T14:27:49Z</time>
      </trkpt>
      <trkpt lat="45.1384" lon="5.88785">
        <ele>1456</ele>
        <time>2026-03-24T14:27:51Z</time>
      </trkpt>
      <trkpt lat="45.13845" lon="5.88777">
        <ele>1454</ele>
        <time>2026-03-24T14:27:52Z</time>
      </trkpt>
      <trkpt lat="45.1386" lon="5.88783">
        <ele>1450</ele>
        <time>2026-03-24T14:27:54Z</time>
      </trkpt>
      <trkpt lat="45.13874" lon="5.88776">
        <ele>1446</ele>
        <time>2026-03-24T14:27:56Z</time>
      </trkpt>
      <trkpt lat="45.13881" lon="5.88776">
        <ele>1445</ele>
        <time>2026-03-24T14:27:57Z</time>
      </trkpt>
      <trkpt lat="45.13895" lon="5.88786">
        <ele>1441</ele>
        <time>2026-03-24T14:27:59Z</time>
      </trkpt>
      <trkpt lat="45.13917" lon="5.8877">
        <ele>1434</ele>
        <time>2026-03-24T14:28:01Z</time>
      </trkpt>
      <trkpt lat="45.13925" lon="5.88775">
        <ele>1432</ele>
        <time>2026-03-24T14:28:02Z</time>
      </trkpt>
      <trkpt lat="45.13932" lon="5.88777">
        <ele>1432</ele>
        <time>2026-03-24T14:28:03Z</time>
      </trkpt>
      <trkpt lat="45.13962" lon="5.88757">
        <ele>1424</ele>
        <time>2026-03-24T14:28:07Z</time>
      </trkpt>
      <trkpt lat="45.13971" lon="5.8876">
        <ele>1422</ele>
        <time>2026-03-24T14:28:08Z</time>
      </trkpt>
      <trkpt lat="45.14007" lon="5.88774">
        <ele>1412</ele>
        <time>2026-03-24T14:28:13Z</time>
      </trkpt>
      <trkpt lat="45.14034" lon="5.88779">
        <ele>1404</ele>
        <time>2026-03-24T14:28:21Z</time>
      </trkpt>
      <trkpt lat="45.14031" lon="5.88795">
        <ele>1404</ele>
        <time>2026-03-24T14:31:51Z</time>
      </trkpt>
      <trkpt lat="45.14005" lon="5.88837">
        <ele>1402</ele>
        <time>2026-03-24T14:32:21Z</time>
      </trkpt>
      <trkpt lat="45.13999" lon="5.88849">
        <ele>1402</ele>
        <time>2026-03-24T14:32:29Z</time>
      </trkpt>
      <trkpt lat="45.13983" lon="5.8887">
        <ele>1401</ele>
        <time>2026-03-24T14:32:47Z</time>
      </trkpt>
      <trkpt lat="45.13978" lon="5.88881">
        <ele>1401</ele>
        <time>2026-03-24T14:32:55Z</time>
      </trkpt>
      <trkpt lat="45.13974" lon="5.88884">
        <ele>1401</ele>
        <time>2026-03-24T14:32:59Z</time>
      </trkpt>
    </trkseg>
  </trk>
</gpx>